<?xml version="1.0" encoding="UTF-8" standalone="no" ?>
<gpx xmlns="http://www.topografix.com/GPX/1/1" xmlns:xsi="http://www.w3.org/2001/XMLSchema-instance" xsi:schemaLocation="http://www.topografix.com/GPX/1/1 http://www.topografix.com/GPX/1/1/gpx.xsd" version="1.1" creator="VisuGPX - https://www.visugpx.com">
  <metadata>
    <name>Bief de la Ruine</name>
    <desc><![CDATA[Circuit relativement court . Au départ on emprunte la Tramejurassienne, puis c'est un sentier en sous-bois qui se redresse au fur et à mesure que l'on se rapproche de la cascade alimentée par une resurgence.]]></desc>
  </metadata>
  <trk>
    <name><![CDATA[Tracé actuel: 09 MARS 2018 08:05]]></name>
    <trkseg>
      <trkpt lat="46.63853" lon="6.02882">
        <ele>805.72</ele>
        <time>2018-03-09T07:05:42Z</time>
      </trkpt>
      <trkpt lat="46.63853" lon="6.02882">
        <ele>812.93</ele>
        <time>2018-03-09T07:05:43Z</time>
      </trkpt>
      <trkpt lat="46.63853" lon="6.02882">
        <ele>812.45</ele>
        <time>2018-03-09T07:05:44Z</time>
      </trkpt>
      <trkpt lat="46.63853" lon="6.02882">
        <ele>809.09</ele>
        <time>2018-03-09T07:05:49Z</time>
      </trkpt>
      <trkpt lat="46.63853" lon="6.02883">
        <ele>812.45</ele>
        <time>2018-03-09T07:05:50Z</time>
      </trkpt>
      <trkpt lat="46.63853" lon="6.02885">
        <ele>815.34</ele>
        <time>2018-03-09T07:05:56Z</time>
      </trkpt>
      <trkpt lat="46.63853" lon="6.02888">
        <ele>812.45</ele>
        <time>2018-03-09T07:05:59Z</time>
      </trkpt>
      <trkpt lat="46.6385" lon="6.029">
        <ele>812.45</ele>
        <time>2018-03-09T07:06:06Z</time>
      </trkpt>
      <trkpt lat="46.63848" lon="6.02905">
        <ele>812.93</ele>
        <time>2018-03-09T07:06:11Z</time>
      </trkpt>
      <trkpt lat="46.6384" lon="6.02914">
        <ele>811.01</ele>
        <time>2018-03-09T07:06:20Z</time>
      </trkpt>
      <trkpt lat="46.63827" lon="6.02937">
        <ele>812.45</ele>
        <time>2018-03-09T07:06:34Z</time>
      </trkpt>
      <trkpt lat="46.63819" lon="6.02956">
        <ele>811.97</ele>
        <time>2018-03-09T07:06:46Z</time>
      </trkpt>
      <trkpt lat="46.63809" lon="6.02981">
        <ele>811.01</ele>
        <time>2018-03-09T07:07:01Z</time>
      </trkpt>
      <trkpt lat="46.63805" lon="6.02991">
        <ele>810.53</ele>
        <time>2018-03-09T07:07:12Z</time>
      </trkpt>
      <trkpt lat="46.63799" lon="6.03003">
        <ele>810.05</ele>
        <time>2018-03-09T07:07:23Z</time>
      </trkpt>
      <trkpt lat="46.63803" lon="6.03009">
        <ele>810.05</ele>
        <time>2018-03-09T07:07:31Z</time>
      </trkpt>
      <trkpt lat="46.63814" lon="6.03012">
        <ele>810.05</ele>
        <time>2018-03-09T07:07:42Z</time>
      </trkpt>
      <trkpt lat="46.6383" lon="6.03014">
        <ele>809.57</ele>
        <time>2018-03-09T07:07:54Z</time>
      </trkpt>
      <trkpt lat="46.63834" lon="6.03016">
        <ele>809.57</ele>
        <time>2018-03-09T07:07:58Z</time>
      </trkpt>
      <trkpt lat="46.63845" lon="6.03025">
        <ele>809.57</ele>
        <time>2018-03-09T07:08:10Z</time>
      </trkpt>
      <trkpt lat="46.63864" lon="6.0302">
        <ele>809.09</ele>
        <time>2018-03-09T07:08:23Z</time>
      </trkpt>
      <trkpt lat="46.63884" lon="6.03016">
        <ele>809.09</ele>
        <time>2018-03-09T07:08:38Z</time>
      </trkpt>
      <trkpt lat="46.639" lon="6.03011">
        <ele>809.09</ele>
        <time>2018-03-09T07:08:53Z</time>
      </trkpt>
      <trkpt lat="46.63918" lon="6.0301">
        <ele>808.61</ele>
        <time>2018-03-09T07:09:05Z</time>
      </trkpt>
      <trkpt lat="46.63941" lon="6.03008">
        <ele>808.61</ele>
        <time>2018-03-09T07:09:21Z</time>
      </trkpt>
      <trkpt lat="46.63957" lon="6.03005">
        <ele>808.13</ele>
        <time>2018-03-09T07:09:33Z</time>
      </trkpt>
      <trkpt lat="46.63975" lon="6.03001">
        <ele>807.64</ele>
        <time>2018-03-09T07:09:46Z</time>
      </trkpt>
      <trkpt lat="46.63992" lon="6.02995">
        <ele>807.64</ele>
        <time>2018-03-09T07:09:58Z</time>
      </trkpt>
      <trkpt lat="46.64009" lon="6.02985">
        <ele>806.68</ele>
        <time>2018-03-09T07:10:11Z</time>
      </trkpt>
      <trkpt lat="46.6402" lon="6.02971">
        <ele>806.2</ele>
        <time>2018-03-09T07:10:23Z</time>
      </trkpt>
      <trkpt lat="46.64032" lon="6.02954">
        <ele>805.24</ele>
        <time>2018-03-09T07:10:35Z</time>
      </trkpt>
      <trkpt lat="46.64036" lon="6.02948">
        <ele>805.72</ele>
        <time>2018-03-09T07:10:40Z</time>
      </trkpt>
      <trkpt lat="46.64038" lon="6.02943">
        <ele>805.24</ele>
        <time>2018-03-09T07:10:43Z</time>
      </trkpt>
      <trkpt lat="46.64048" lon="6.02918">
        <ele>805.24</ele>
        <time>2018-03-09T07:10:58Z</time>
      </trkpt>
      <trkpt lat="46.64052" lon="6.02896">
        <ele>804.76</ele>
        <time>2018-03-09T07:11:09Z</time>
      </trkpt>
      <trkpt lat="46.64054" lon="6.02882">
        <ele>804.28</ele>
        <time>2018-03-09T07:11:18Z</time>
      </trkpt>
      <trkpt lat="46.64057" lon="6.02874">
        <ele>804.28</ele>
        <time>2018-03-09T07:11:25Z</time>
      </trkpt>
      <trkpt lat="46.64059" lon="6.02846">
        <ele>804.28</ele>
        <time>2018-03-09T07:11:36Z</time>
      </trkpt>
      <trkpt lat="46.64064" lon="6.02818">
        <ele>803.8</ele>
        <time>2018-03-09T07:11:50Z</time>
      </trkpt>
      <trkpt lat="46.64068" lon="6.0281">
        <ele>803.32</ele>
        <time>2018-03-09T07:11:55Z</time>
      </trkpt>
      <trkpt lat="46.64071" lon="6.02805">
        <ele>803.8</ele>
        <time>2018-03-09T07:11:58Z</time>
      </trkpt>
      <trkpt lat="46.6408" lon="6.02785">
        <ele>802.84</ele>
        <time>2018-03-09T07:12:10Z</time>
      </trkpt>
      <trkpt lat="46.64082" lon="6.02782">
        <ele>803.32</ele>
        <time>2018-03-09T07:12:13Z</time>
      </trkpt>
      <trkpt lat="46.64092" lon="6.02771">
        <ele>802.84</ele>
        <time>2018-03-09T07:12:22Z</time>
      </trkpt>
      <trkpt lat="46.64097" lon="6.02767">
        <ele>802.36</ele>
        <time>2018-03-09T07:12:26Z</time>
      </trkpt>
      <trkpt lat="46.64114" lon="6.02755">
        <ele>801.4</ele>
        <time>2018-03-09T07:12:40Z</time>
      </trkpt>
      <trkpt lat="46.6413" lon="6.02749">
        <ele>801.88</ele>
        <time>2018-03-09T07:12:52Z</time>
      </trkpt>
      <trkpt lat="46.64133" lon="6.02747">
        <ele>800.92</ele>
        <time>2018-03-09T07:12:54Z</time>
      </trkpt>
      <trkpt lat="46.64148" lon="6.02741">
        <ele>799.95</ele>
        <time>2018-03-09T07:13:07Z</time>
      </trkpt>
      <trkpt lat="46.6417" lon="6.02737">
        <ele>798.99</ele>
        <time>2018-03-09T07:13:23Z</time>
      </trkpt>
      <trkpt lat="46.64176" lon="6.02736">
        <ele>798.51</ele>
        <time>2018-03-09T07:13:28Z</time>
      </trkpt>
      <trkpt lat="46.64183" lon="6.02734">
        <ele>798.03</ele>
        <time>2018-03-09T07:13:35Z</time>
      </trkpt>
      <trkpt lat="46.64196" lon="6.02727">
        <ele>798.03</ele>
        <time>2018-03-09T07:13:46Z</time>
      </trkpt>
      <trkpt lat="46.64203" lon="6.02727">
        <ele>797.55</ele>
        <time>2018-03-09T07:13:57Z</time>
      </trkpt>
      <trkpt lat="46.64204" lon="6.02726">
        <ele>797.55</ele>
        <time>2018-03-09T07:13:58Z</time>
      </trkpt>
      <trkpt lat="46.64213" lon="6.02725">
        <ele>796.59</ele>
        <time>2018-03-09T07:14:09Z</time>
      </trkpt>
      <trkpt lat="46.6422" lon="6.02722">
        <ele>796.59</ele>
        <time>2018-03-09T07:14:16Z</time>
      </trkpt>
      <trkpt lat="46.64235" lon="6.0272">
        <ele>795.63</ele>
        <time>2018-03-09T07:14:26Z</time>
      </trkpt>
      <trkpt lat="46.64239" lon="6.02718">
        <ele>795.63</ele>
        <time>2018-03-09T07:14:29Z</time>
      </trkpt>
      <trkpt lat="46.64248" lon="6.02713">
        <ele>794.67</ele>
        <time>2018-03-09T07:14:36Z</time>
      </trkpt>
      <trkpt lat="46.64266" lon="6.02708">
        <ele>793.71</ele>
        <time>2018-03-09T07:14:49Z</time>
      </trkpt>
      <trkpt lat="46.6427" lon="6.02705">
        <ele>793.71</ele>
        <time>2018-03-09T07:14:53Z</time>
      </trkpt>
      <trkpt lat="46.64284" lon="6.02696">
        <ele>793.22</ele>
        <time>2018-03-09T07:15:00Z</time>
      </trkpt>
      <trkpt lat="46.64296" lon="6.02694">
        <ele>792.26</ele>
        <time>2018-03-09T07:15:14Z</time>
      </trkpt>
      <trkpt lat="46.64298" lon="6.02696">
        <ele>792.26</ele>
        <time>2018-03-09T07:15:29Z</time>
      </trkpt>
      <trkpt lat="46.643" lon="6.02697">
        <ele>791.3</ele>
        <time>2018-03-09T07:15:53Z</time>
      </trkpt>
      <trkpt lat="46.643" lon="6.02696">
        <ele>791.78</ele>
        <time>2018-03-09T07:16:14Z</time>
      </trkpt>
      <trkpt lat="46.64307" lon="6.02693">
        <ele>791.78</ele>
        <time>2018-03-09T07:16:29Z</time>
      </trkpt>
      <trkpt lat="46.6431" lon="6.02693">
        <ele>792.74</ele>
        <time>2018-03-09T07:16:45Z</time>
      </trkpt>
      <trkpt lat="46.64311" lon="6.02689">
        <ele>794.67</ele>
        <time>2018-03-09T07:17:03Z</time>
      </trkpt>
      <trkpt lat="46.64314" lon="6.02686">
        <ele>795.63</ele>
        <time>2018-03-09T07:17:16Z</time>
      </trkpt>
      <trkpt lat="46.64316" lon="6.02685">
        <ele>797.55</ele>
        <time>2018-03-09T07:17:31Z</time>
      </trkpt>
      <trkpt lat="46.64322" lon="6.02683">
        <ele>798.99</ele>
        <time>2018-03-09T07:17:47Z</time>
      </trkpt>
      <trkpt lat="46.64331" lon="6.02689">
        <ele>800.44</ele>
        <time>2018-03-09T07:18:02Z</time>
      </trkpt>
      <trkpt lat="46.64338" lon="6.02689">
        <ele>800.92</ele>
        <time>2018-03-09T07:18:15Z</time>
      </trkpt>
      <trkpt lat="46.64349" lon="6.02692">
        <ele>803.32</ele>
        <time>2018-03-09T07:18:30Z</time>
      </trkpt>
      <trkpt lat="46.64358" lon="6.02688">
        <ele>803.8</ele>
        <time>2018-03-09T07:18:45Z</time>
      </trkpt>
      <trkpt lat="46.64367" lon="6.02688">
        <ele>805.24</ele>
        <time>2018-03-09T07:19:00Z</time>
      </trkpt>
      <trkpt lat="46.64381" lon="6.02684">
        <ele>805.72</ele>
        <time>2018-03-09T07:19:17Z</time>
      </trkpt>
      <trkpt lat="46.64391" lon="6.02684">
        <ele>807.16</ele>
        <time>2018-03-09T07:19:32Z</time>
      </trkpt>
      <trkpt lat="46.64395" lon="6.02681">
        <ele>807.64</ele>
        <time>2018-03-09T07:19:43Z</time>
      </trkpt>
      <trkpt lat="46.64403" lon="6.0268">
        <ele>807.64</ele>
        <time>2018-03-09T07:19:56Z</time>
      </trkpt>
      <trkpt lat="46.64413" lon="6.02675">
        <ele>807.64</ele>
        <time>2018-03-09T07:20:10Z</time>
      </trkpt>
      <trkpt lat="46.64423" lon="6.02672">
        <ele>808.13</ele>
        <time>2018-03-09T07:20:26Z</time>
      </trkpt>
      <trkpt lat="46.64429" lon="6.02675">
        <ele>810.05</ele>
        <time>2018-03-09T07:20:43Z</time>
      </trkpt>
      <trkpt lat="46.6444" lon="6.02684">
        <ele>811.97</ele>
        <time>2018-03-09T07:20:55Z</time>
      </trkpt>
      <trkpt lat="46.64446" lon="6.02684">
        <ele>811.97</ele>
        <time>2018-03-09T07:21:10Z</time>
      </trkpt>
      <trkpt lat="46.64451" lon="6.02679">
        <ele>812.45</ele>
        <time>2018-03-09T07:21:23Z</time>
      </trkpt>
      <trkpt lat="46.64464" lon="6.0266">
        <ele>811.97</ele>
        <time>2018-03-09T07:21:34Z</time>
      </trkpt>
      <trkpt lat="46.6447" lon="6.02651">
        <ele>811.97</ele>
        <time>2018-03-09T07:21:40Z</time>
      </trkpt>
      <trkpt lat="46.64487" lon="6.02631">
        <ele>810.53</ele>
        <time>2018-03-09T07:21:51Z</time>
      </trkpt>
      <trkpt lat="46.64491" lon="6.02621">
        <ele>811.01</ele>
        <time>2018-03-09T07:21:56Z</time>
      </trkpt>
      <trkpt lat="46.64492" lon="6.02617">
        <ele>810.53</ele>
        <time>2018-03-09T07:21:58Z</time>
      </trkpt>
      <trkpt lat="46.64502" lon="6.02604">
        <ele>811.01</ele>
        <time>2018-03-09T07:22:08Z</time>
      </trkpt>
      <trkpt lat="46.64512" lon="6.02592">
        <ele>812.45</ele>
        <time>2018-03-09T07:22:22Z</time>
      </trkpt>
      <trkpt lat="46.64521" lon="6.02577">
        <ele>814.37</ele>
        <time>2018-03-09T07:22:36Z</time>
      </trkpt>
      <trkpt lat="46.64528" lon="6.02569">
        <ele>816.3</ele>
        <time>2018-03-09T07:22:48Z</time>
      </trkpt>
      <trkpt lat="46.64535" lon="6.02558">
        <ele>819.18</ele>
        <time>2018-03-09T07:23:03Z</time>
      </trkpt>
      <trkpt lat="46.64541" lon="6.02544">
        <ele>820.62</ele>
        <time>2018-03-09T07:23:15Z</time>
      </trkpt>
      <trkpt lat="46.64549" lon="6.02541">
        <ele>822.06</ele>
        <time>2018-03-09T07:23:26Z</time>
      </trkpt>
      <trkpt lat="46.64557" lon="6.02546">
        <ele>823.03</ele>
        <time>2018-03-09T07:23:42Z</time>
      </trkpt>
      <trkpt lat="46.64566" lon="6.02551">
        <ele>824.95</ele>
        <time>2018-03-09T07:23:56Z</time>
      </trkpt>
      <trkpt lat="46.64573" lon="6.02549">
        <ele>824.95</ele>
        <time>2018-03-09T07:24:10Z</time>
      </trkpt>
      <trkpt lat="46.64587" lon="6.02545">
        <ele>824.95</ele>
        <time>2018-03-09T07:24:19Z</time>
      </trkpt>
      <trkpt lat="46.64608" lon="6.0254">
        <ele>825.91</ele>
        <time>2018-03-09T07:24:33Z</time>
      </trkpt>
      <trkpt lat="46.6462" lon="6.02534">
        <ele>823.99</ele>
        <time>2018-03-09T07:24:47Z</time>
      </trkpt>
      <trkpt lat="46.64627" lon="6.02528">
        <ele>822.55</ele>
        <time>2018-03-09T07:24:59Z</time>
      </trkpt>
      <trkpt lat="46.64642" lon="6.0252">
        <ele>820.62</ele>
        <time>2018-03-09T07:25:12Z</time>
      </trkpt>
      <trkpt lat="46.64654" lon="6.02517">
        <ele>818.7</ele>
        <time>2018-03-09T07:25:22Z</time>
      </trkpt>
      <trkpt lat="46.64675" lon="6.02508">
        <ele>817.26</ele>
        <time>2018-03-09T07:25:34Z</time>
      </trkpt>
      <trkpt lat="46.64681" lon="6.02507">
        <ele>816.78</ele>
        <time>2018-03-09T07:25:37Z</time>
      </trkpt>
      <trkpt lat="46.64684" lon="6.02505">
        <ele>816.78</ele>
        <time>2018-03-09T07:25:40Z</time>
      </trkpt>
      <trkpt lat="46.6469" lon="6.02502">
        <ele>815.82</ele>
        <time>2018-03-09T07:25:45Z</time>
      </trkpt>
      <trkpt lat="46.64705" lon="6.02494">
        <ele>814.37</ele>
        <time>2018-03-09T07:25:59Z</time>
      </trkpt>
      <trkpt lat="46.64711" lon="6.02492">
        <ele>813.89</ele>
        <time>2018-03-09T07:26:05Z</time>
      </trkpt>
      <trkpt lat="46.64715" lon="6.0249">
        <ele>813.89</ele>
        <time>2018-03-09T07:26:08Z</time>
      </trkpt>
      <trkpt lat="46.64726" lon="6.02492">
        <ele>814.37</ele>
        <time>2018-03-09T07:26:19Z</time>
      </trkpt>
      <trkpt lat="46.64734" lon="6.02495">
        <ele>815.82</ele>
        <time>2018-03-09T07:26:31Z</time>
      </trkpt>
      <trkpt lat="46.64745" lon="6.02505">
        <ele>817.74</ele>
        <time>2018-03-09T07:26:44Z</time>
      </trkpt>
      <trkpt lat="46.64754" lon="6.02511">
        <ele>819.18</ele>
        <time>2018-03-09T07:26:55Z</time>
      </trkpt>
      <trkpt lat="46.64758" lon="6.02513">
        <ele>820.14</ele>
        <time>2018-03-09T07:27:06Z</time>
      </trkpt>
      <trkpt lat="46.64759" lon="6.02513">
        <ele>820.14</ele>
        <time>2018-03-09T07:27:07Z</time>
      </trkpt>
      <trkpt lat="46.64767" lon="6.02517">
        <ele>821.1</ele>
        <time>2018-03-09T07:27:19Z</time>
      </trkpt>
      <trkpt lat="46.64775" lon="6.02518">
        <ele>821.58</ele>
        <time>2018-03-09T07:27:30Z</time>
      </trkpt>
      <trkpt lat="46.64795" lon="6.02521">
        <ele>822.55</ele>
        <time>2018-03-09T07:27:41Z</time>
      </trkpt>
      <trkpt lat="46.64808" lon="6.02518">
        <ele>823.51</ele>
        <time>2018-03-09T07:27:54Z</time>
      </trkpt>
      <trkpt lat="46.64819" lon="6.02523">
        <ele>825.43</ele>
        <time>2018-03-09T07:28:08Z</time>
      </trkpt>
      <trkpt lat="46.64828" lon="6.02526">
        <ele>826.39</ele>
        <time>2018-03-09T07:28:19Z</time>
      </trkpt>
      <trkpt lat="46.64835" lon="6.02524">
        <ele>827.83</ele>
        <time>2018-03-09T07:28:32Z</time>
      </trkpt>
      <trkpt lat="46.64844" lon="6.02519">
        <ele>828.79</ele>
        <time>2018-03-09T07:28:45Z</time>
      </trkpt>
      <trkpt lat="46.64855" lon="6.02517">
        <ele>828.31</ele>
        <time>2018-03-09T07:28:59Z</time>
      </trkpt>
      <trkpt lat="46.64874" lon="6.02511">
        <ele>826.39</ele>
        <time>2018-03-09T07:29:13Z</time>
      </trkpt>
      <trkpt lat="46.64884" lon="6.02506">
        <ele>825.91</ele>
        <time>2018-03-09T07:29:26Z</time>
      </trkpt>
      <trkpt lat="46.64887" lon="6.02504">
        <ele>826.87</ele>
        <time>2018-03-09T07:29:40Z</time>
      </trkpt>
      <trkpt lat="46.6489" lon="6.02506">
        <ele>827.83</ele>
        <time>2018-03-09T07:29:52Z</time>
      </trkpt>
      <trkpt lat="46.64895" lon="6.0251">
        <ele>828.79</ele>
        <time>2018-03-09T07:30:04Z</time>
      </trkpt>
      <trkpt lat="46.649" lon="6.02512">
        <ele>829.27</ele>
        <time>2018-03-09T07:30:20Z</time>
      </trkpt>
      <trkpt lat="46.64905" lon="6.02514">
        <ele>830.24</ele>
        <time>2018-03-09T07:30:38Z</time>
      </trkpt>
      <trkpt lat="46.64908" lon="6.02516">
        <ele>829.27</ele>
        <time>2018-03-09T07:30:49Z</time>
      </trkpt>
      <trkpt lat="46.64914" lon="6.02517">
        <ele>829.27</ele>
        <time>2018-03-09T07:31:03Z</time>
      </trkpt>
      <trkpt lat="46.64921" lon="6.02517">
        <ele>829.76</ele>
        <time>2018-03-09T07:31:16Z</time>
      </trkpt>
      <trkpt lat="46.64925" lon="6.02518">
        <ele>829.27</ele>
        <time>2018-03-09T07:31:32Z</time>
      </trkpt>
      <trkpt lat="46.64934" lon="6.02517">
        <ele>828.31</ele>
        <time>2018-03-09T07:31:52Z</time>
      </trkpt>
      <trkpt lat="46.64939" lon="6.02515">
        <ele>828.31</ele>
        <time>2018-03-09T07:32:19Z</time>
      </trkpt>
      <trkpt lat="46.64941" lon="6.02516">
        <ele>834.08</ele>
        <time>2018-03-09T07:32:33Z</time>
      </trkpt>
      <trkpt lat="46.64942" lon="6.02516">
        <ele>828.79</ele>
        <time>2018-03-09T07:32:34Z</time>
      </trkpt>
      <trkpt lat="46.64947" lon="6.02524">
        <ele>830.72</ele>
        <time>2018-03-09T07:32:50Z</time>
      </trkpt>
      <trkpt lat="46.64949" lon="6.02533">
        <ele>833.12</ele>
        <time>2018-03-09T07:33:02Z</time>
      </trkpt>
      <trkpt lat="46.6495" lon="6.02537">
        <ele>835.04</ele>
        <time>2018-03-09T07:33:12Z</time>
      </trkpt>
      <trkpt lat="46.6495" lon="6.02543">
        <ele>836.48</ele>
        <time>2018-03-09T07:33:27Z</time>
      </trkpt>
      <trkpt lat="46.64954" lon="6.02546">
        <ele>837.45</ele>
        <time>2018-03-09T07:33:40Z</time>
      </trkpt>
      <trkpt lat="46.64958" lon="6.0255">
        <ele>838.89</ele>
        <time>2018-03-09T07:33:54Z</time>
      </trkpt>
      <trkpt lat="46.64964" lon="6.02559">
        <ele>841.29</ele>
        <time>2018-03-09T07:34:08Z</time>
      </trkpt>
      <trkpt lat="46.64966" lon="6.02565">
        <ele>839.85</ele>
        <time>2018-03-09T07:34:24Z</time>
      </trkpt>
      <trkpt lat="46.6497" lon="6.02573">
        <ele>838.89</ele>
        <time>2018-03-09T07:34:38Z</time>
      </trkpt>
      <trkpt lat="46.64984" lon="6.02582">
        <ele>841.29</ele>
        <time>2018-03-09T07:34:51Z</time>
      </trkpt>
      <trkpt lat="46.64989" lon="6.02604">
        <ele>842.25</ele>
        <time>2018-03-09T07:35:03Z</time>
      </trkpt>
      <trkpt lat="46.64997" lon="6.02615">
        <ele>844.66</ele>
        <time>2018-03-09T07:35:18Z</time>
      </trkpt>
      <trkpt lat="46.65" lon="6.02623">
        <ele>844.18</ele>
        <time>2018-03-09T07:35:28Z</time>
      </trkpt>
      <trkpt lat="46.65005" lon="6.0263">
        <ele>844.18</ele>
        <time>2018-03-09T07:35:44Z</time>
      </trkpt>
      <trkpt lat="46.65003" lon="6.02634">
        <ele>846.1</ele>
        <time>2018-03-09T07:35:54Z</time>
      </trkpt>
      <trkpt lat="46.65003" lon="6.02639">
        <ele>849.46</ele>
        <time>2018-03-09T07:36:05Z</time>
      </trkpt>
      <trkpt lat="46.65002" lon="6.02643">
        <ele>850.9</ele>
        <time>2018-03-09T07:36:23Z</time>
      </trkpt>
      <trkpt lat="46.65003" lon="6.0265">
        <ele>852.83</ele>
        <time>2018-03-09T07:36:37Z</time>
      </trkpt>
      <trkpt lat="46.65003" lon="6.02663">
        <ele>853.31</ele>
        <time>2018-03-09T07:36:53Z</time>
      </trkpt>
      <trkpt lat="46.65013" lon="6.0268">
        <ele>852.83</ele>
        <time>2018-03-09T07:37:07Z</time>
      </trkpt>
      <trkpt lat="46.65019" lon="6.02691">
        <ele>852.83</ele>
        <time>2018-03-09T07:37:23Z</time>
      </trkpt>
      <trkpt lat="46.65026" lon="6.02702">
        <ele>851.87</ele>
        <time>2018-03-09T07:37:36Z</time>
      </trkpt>
      <trkpt lat="46.65033" lon="6.02721">
        <ele>850.9</ele>
        <time>2018-03-09T07:37:49Z</time>
      </trkpt>
      <trkpt lat="46.65038" lon="6.02739">
        <ele>852.35</ele>
        <time>2018-03-09T07:38:04Z</time>
      </trkpt>
      <trkpt lat="46.65045" lon="6.0275">
        <ele>851.38</ele>
        <time>2018-03-09T07:38:19Z</time>
      </trkpt>
      <trkpt lat="46.65048" lon="6.02752">
        <ele>849.94</ele>
        <time>2018-03-09T07:38:31Z</time>
      </trkpt>
      <trkpt lat="46.65054" lon="6.02753">
        <ele>848.98</ele>
        <time>2018-03-09T07:38:57Z</time>
      </trkpt>
      <trkpt lat="46.65056" lon="6.02756">
        <ele>849.46</ele>
        <time>2018-03-09T07:39:16Z</time>
      </trkpt>
      <trkpt lat="46.65057" lon="6.02762">
        <ele>851.38</ele>
        <time>2018-03-09T07:39:31Z</time>
      </trkpt>
      <trkpt lat="46.65058" lon="6.02766">
        <ele>852.83</ele>
        <time>2018-03-09T07:39:37Z</time>
      </trkpt>
      <trkpt lat="46.65064" lon="6.02778">
        <ele>853.31</ele>
        <time>2018-03-09T07:39:50Z</time>
      </trkpt>
      <trkpt lat="46.65072" lon="6.02793">
        <ele>853.79</ele>
        <time>2018-03-09T07:40:07Z</time>
      </trkpt>
      <trkpt lat="46.65078" lon="6.02796">
        <ele>851.87</ele>
        <time>2018-03-09T07:40:21Z</time>
      </trkpt>
      <trkpt lat="46.65083" lon="6.02801">
        <ele>852.83</ele>
        <time>2018-03-09T07:40:34Z</time>
      </trkpt>
      <trkpt lat="46.65089" lon="6.02814">
        <ele>855.71</ele>
        <time>2018-03-09T07:40:48Z</time>
      </trkpt>
      <trkpt lat="46.65094" lon="6.02822">
        <ele>856.67</ele>
        <time>2018-03-09T07:41:01Z</time>
      </trkpt>
      <trkpt lat="46.65109" lon="6.02833">
        <ele>856.67</ele>
        <time>2018-03-09T07:41:14Z</time>
      </trkpt>
      <trkpt lat="46.65113" lon="6.02844">
        <ele>857.63</ele>
        <time>2018-03-09T07:41:38Z</time>
      </trkpt>
      <trkpt lat="46.65114" lon="6.02849">
        <ele>856.67</ele>
        <time>2018-03-09T07:41:55Z</time>
      </trkpt>
      <trkpt lat="46.65121" lon="6.02857">
        <ele>855.71</ele>
        <time>2018-03-09T07:42:11Z</time>
      </trkpt>
      <trkpt lat="46.65127" lon="6.02866">
        <ele>857.63</ele>
        <time>2018-03-09T07:42:27Z</time>
      </trkpt>
      <trkpt lat="46.65133" lon="6.02885">
        <ele>858.59</ele>
        <time>2018-03-09T07:42:41Z</time>
      </trkpt>
      <trkpt lat="46.65148" lon="6.02905">
        <ele>858.11</ele>
        <time>2018-03-09T07:42:54Z</time>
      </trkpt>
      <trkpt lat="46.65155" lon="6.02913">
        <ele>857.63</ele>
        <time>2018-03-09T07:43:09Z</time>
      </trkpt>
      <trkpt lat="46.65158" lon="6.02916">
        <ele>860.04</ele>
        <time>2018-03-09T07:43:36Z</time>
      </trkpt>
      <trkpt lat="46.65161" lon="6.02917">
        <ele>860.52</ele>
        <time>2018-03-09T07:43:49Z</time>
      </trkpt>
      <trkpt lat="46.65166" lon="6.02921">
        <ele>861</ele>
        <time>2018-03-09T07:44:01Z</time>
      </trkpt>
      <trkpt lat="46.65167" lon="6.02925">
        <ele>861.48</ele>
        <time>2018-03-09T07:44:21Z</time>
      </trkpt>
      <trkpt lat="46.6517" lon="6.0293">
        <ele>861.96</ele>
        <time>2018-03-09T07:44:42Z</time>
      </trkpt>
      <trkpt lat="46.65175" lon="6.02929">
        <ele>864.36</ele>
        <time>2018-03-09T07:45:01Z</time>
      </trkpt>
      <trkpt lat="46.65182" lon="6.02922">
        <ele>866.29</ele>
        <time>2018-03-09T07:45:17Z</time>
      </trkpt>
      <trkpt lat="46.65191" lon="6.02924">
        <ele>866.29</ele>
        <time>2018-03-09T07:45:38Z</time>
      </trkpt>
      <trkpt lat="46.65195" lon="6.02926">
        <ele>867.25</ele>
        <time>2018-03-09T07:45:53Z</time>
      </trkpt>
      <trkpt lat="46.65199" lon="6.02929">
        <ele>868.69</ele>
        <time>2018-03-09T07:46:11Z</time>
      </trkpt>
      <trkpt lat="46.65199" lon="6.02935">
        <ele>868.69</ele>
        <time>2018-03-09T07:46:25Z</time>
      </trkpt>
      <trkpt lat="46.652" lon="6.02933">
        <ele>869.17</ele>
        <time>2018-03-09T07:46:43Z</time>
      </trkpt>
      <trkpt lat="46.652" lon="6.02944">
        <ele>868.21</ele>
        <time>2018-03-09T07:47:02Z</time>
      </trkpt>
      <trkpt lat="46.65189" lon="6.02939">
        <ele>867.73</ele>
        <time>2018-03-09T07:47:15Z</time>
      </trkpt>
      <trkpt lat="46.65185" lon="6.02925">
        <ele>866.29</ele>
        <time>2018-03-09T07:47:29Z</time>
      </trkpt>
      <trkpt lat="46.65184" lon="6.02923">
        <ele>865.32</ele>
        <time>2018-03-09T07:47:44Z</time>
      </trkpt>
      <trkpt lat="46.65183" lon="6.0292">
        <ele>864.84</ele>
        <time>2018-03-09T07:47:58Z</time>
      </trkpt>
      <trkpt lat="46.65183" lon="6.02922">
        <ele>863.88</ele>
        <time>2018-03-09T07:48:15Z</time>
      </trkpt>
      <trkpt lat="46.65181" lon="6.02912">
        <ele>862.92</ele>
        <time>2018-03-09T07:48:28Z</time>
      </trkpt>
      <trkpt lat="46.65179" lon="6.02899">
        <ele>862.44</ele>
        <time>2018-03-09T07:48:43Z</time>
      </trkpt>
      <trkpt lat="46.65178" lon="6.02896">
        <ele>861.96</ele>
        <time>2018-03-09T07:48:57Z</time>
      </trkpt>
      <trkpt lat="46.65175" lon="6.02894">
        <ele>860.52</ele>
        <time>2018-03-09T07:49:10Z</time>
      </trkpt>
      <trkpt lat="46.65169" lon="6.02881">
        <ele>857.63</ele>
        <time>2018-03-09T07:49:26Z</time>
      </trkpt>
      <trkpt lat="46.65158" lon="6.02873">
        <ele>857.15</ele>
        <time>2018-03-09T07:49:39Z</time>
      </trkpt>
      <trkpt lat="46.65149" lon="6.02869">
        <ele>857.15</ele>
        <time>2018-03-09T07:49:53Z</time>
      </trkpt>
      <trkpt lat="46.65137" lon="6.0286">
        <ele>854.27</ele>
        <time>2018-03-09T07:50:07Z</time>
      </trkpt>
      <trkpt lat="46.65123" lon="6.02849">
        <ele>856.67</ele>
        <time>2018-03-09T07:50:20Z</time>
      </trkpt>
      <trkpt lat="46.65122" lon="6.02848">
        <ele>858.59</ele>
        <time>2018-03-09T07:50:26Z</time>
      </trkpt>
      <trkpt lat="46.65115" lon="6.02859">
        <ele>861</ele>
        <time>2018-03-09T07:50:35Z</time>
      </trkpt>
      <trkpt lat="46.65111" lon="6.02861">
        <ele>863.88</ele>
        <time>2018-03-09T07:50:46Z</time>
      </trkpt>
      <trkpt lat="46.65104" lon="6.02868">
        <ele>865.8</ele>
        <time>2018-03-09T07:51:01Z</time>
      </trkpt>
      <trkpt lat="46.651" lon="6.02874">
        <ele>866.77</ele>
        <time>2018-03-09T07:51:14Z</time>
      </trkpt>
      <trkpt lat="46.65096" lon="6.02881">
        <ele>868.69</ele>
        <time>2018-03-09T07:51:26Z</time>
      </trkpt>
      <trkpt lat="46.65091" lon="6.02884">
        <ele>870.61</ele>
        <time>2018-03-09T07:51:40Z</time>
      </trkpt>
      <trkpt lat="46.65084" lon="6.02886">
        <ele>872.05</ele>
        <time>2018-03-09T07:51:54Z</time>
      </trkpt>
      <trkpt lat="46.65081" lon="6.02889">
        <ele>874.94</ele>
        <time>2018-03-09T07:52:07Z</time>
      </trkpt>
      <trkpt lat="46.65075" lon="6.02895">
        <ele>877.34</ele>
        <time>2018-03-09T07:52:19Z</time>
      </trkpt>
      <trkpt lat="46.65069" lon="6.02899">
        <ele>878.78</ele>
        <time>2018-03-09T07:52:31Z</time>
      </trkpt>
      <trkpt lat="46.65065" lon="6.02904">
        <ele>881.19</ele>
        <time>2018-03-09T07:52:44Z</time>
      </trkpt>
      <trkpt lat="46.65059" lon="6.0291">
        <ele>882.63</ele>
        <time>2018-03-09T07:52:54Z</time>
      </trkpt>
      <trkpt lat="46.65047" lon="6.02916">
        <ele>884.07</ele>
        <time>2018-03-09T07:53:07Z</time>
      </trkpt>
      <trkpt lat="46.65044" lon="6.02918">
        <ele>884.07</ele>
        <time>2018-03-09T07:53:22Z</time>
      </trkpt>
      <trkpt lat="46.65028" lon="6.02936">
        <ele>883.59</ele>
        <time>2018-03-09T07:53:36Z</time>
      </trkpt>
      <trkpt lat="46.65023" lon="6.02942">
        <ele>884.07</ele>
        <time>2018-03-09T07:53:47Z</time>
      </trkpt>
      <trkpt lat="46.65017" lon="6.02947">
        <ele>883.59</ele>
        <time>2018-03-09T07:54:00Z</time>
      </trkpt>
      <trkpt lat="46.65012" lon="6.02954">
        <ele>884.55</ele>
        <time>2018-03-09T07:54:11Z</time>
      </trkpt>
      <trkpt lat="46.65012" lon="6.02953">
        <ele>884.55</ele>
        <time>2018-03-09T07:54:12Z</time>
      </trkpt>
      <trkpt lat="46.65004" lon="6.02964">
        <ele>885.51</ele>
        <time>2018-03-09T07:54:25Z</time>
      </trkpt>
      <trkpt lat="46.65001" lon="6.02976">
        <ele>885.99</ele>
        <time>2018-03-09T07:54:34Z</time>
      </trkpt>
      <trkpt lat="46.64995" lon="6.02988">
        <ele>886.47</ele>
        <time>2018-03-09T07:54:44Z</time>
      </trkpt>
      <trkpt lat="46.64996" lon="6.02987">
        <ele>886.47</ele>
        <time>2018-03-09T07:54:51Z</time>
      </trkpt>
      <trkpt lat="46.64988" lon="6.03007">
        <ele>887.43</ele>
        <time>2018-03-09T07:55:00Z</time>
      </trkpt>
      <trkpt lat="46.64981" lon="6.03023">
        <ele>887.91</ele>
        <time>2018-03-09T07:55:13Z</time>
      </trkpt>
      <trkpt lat="46.6498" lon="6.03025">
        <ele>888.4</ele>
        <time>2018-03-09T07:55:16Z</time>
      </trkpt>
      <trkpt lat="46.64969" lon="6.0305">
        <ele>888.88</ele>
        <time>2018-03-09T07:55:30Z</time>
      </trkpt>
      <trkpt lat="46.64969" lon="6.03051">
        <ele>888.88</ele>
        <time>2018-03-09T07:55:32Z</time>
      </trkpt>
      <trkpt lat="46.64946" lon="6.03092">
        <ele>889.36</ele>
        <time>2018-03-09T07:55:44Z</time>
      </trkpt>
      <trkpt lat="46.64946" lon="6.03094">
        <ele>889.84</ele>
        <time>2018-03-09T07:55:47Z</time>
      </trkpt>
      <trkpt lat="46.6495" lon="6.03098">
        <ele>889.84</ele>
        <time>2018-03-09T07:55:59Z</time>
      </trkpt>
      <trkpt lat="46.6495" lon="6.031">
        <ele>889.84</ele>
        <time>2018-03-09T07:56:00Z</time>
      </trkpt>
      <trkpt lat="46.6494" lon="6.03129">
        <ele>889.84</ele>
        <time>2018-03-09T07:56:11Z</time>
      </trkpt>
      <trkpt lat="46.64928" lon="6.0316">
        <ele>890.8</ele>
        <time>2018-03-09T07:56:21Z</time>
      </trkpt>
      <trkpt lat="46.64925" lon="6.0317">
        <ele>890.8</ele>
        <time>2018-03-09T07:56:29Z</time>
      </trkpt>
      <trkpt lat="46.64922" lon="6.03179">
        <ele>890.8</ele>
        <time>2018-03-09T07:56:34Z</time>
      </trkpt>
      <trkpt lat="46.64918" lon="6.03188">
        <ele>890.8</ele>
        <time>2018-03-09T07:56:41Z</time>
      </trkpt>
      <trkpt lat="46.64908" lon="6.03205">
        <ele>891.28</ele>
        <time>2018-03-09T07:56:54Z</time>
      </trkpt>
      <trkpt lat="46.64903" lon="6.03213">
        <ele>891.28</ele>
        <time>2018-03-09T07:56:59Z</time>
      </trkpt>
      <trkpt lat="46.64899" lon="6.03216">
        <ele>891.76</ele>
        <time>2018-03-09T07:57:02Z</time>
      </trkpt>
      <trkpt lat="46.64893" lon="6.03221">
        <ele>891.76</ele>
        <time>2018-03-09T07:57:08Z</time>
      </trkpt>
      <trkpt lat="46.64889" lon="6.03223">
        <ele>892.24</ele>
        <time>2018-03-09T07:57:12Z</time>
      </trkpt>
      <trkpt lat="46.6488" lon="6.03232">
        <ele>892.24</ele>
        <time>2018-03-09T07:57:20Z</time>
      </trkpt>
      <trkpt lat="46.64874" lon="6.03241">
        <ele>892.24</ele>
        <time>2018-03-09T07:57:27Z</time>
      </trkpt>
      <trkpt lat="46.64871" lon="6.03246">
        <ele>892.24</ele>
        <time>2018-03-09T07:57:31Z</time>
      </trkpt>
      <trkpt lat="46.64866" lon="6.03263">
        <ele>891.76</ele>
        <time>2018-03-09T07:57:44Z</time>
      </trkpt>
      <trkpt lat="46.64867" lon="6.03262">
        <ele>892.24</ele>
        <time>2018-03-09T07:57:59Z</time>
      </trkpt>
      <trkpt lat="46.64869" lon="6.03268">
        <ele>892.24</ele>
        <time>2018-03-09T07:58:07Z</time>
      </trkpt>
      <trkpt lat="46.64869" lon="6.03291">
        <ele>892.72</ele>
        <time>2018-03-09T07:58:20Z</time>
      </trkpt>
      <trkpt lat="46.64871" lon="6.03295">
        <ele>892.72</ele>
        <time>2018-03-09T07:58:23Z</time>
      </trkpt>
      <trkpt lat="46.64873" lon="6.033">
        <ele>892.72</ele>
        <time>2018-03-09T07:58:26Z</time>
      </trkpt>
      <trkpt lat="46.64878" lon="6.03309">
        <ele>893.2</ele>
        <time>2018-03-09T07:58:33Z</time>
      </trkpt>
      <trkpt lat="46.64885" lon="6.03322">
        <ele>894.16</ele>
        <time>2018-03-09T07:58:41Z</time>
      </trkpt>
      <trkpt lat="46.64884" lon="6.03328">
        <ele>894.16</ele>
        <time>2018-03-09T07:58:45Z</time>
      </trkpt>
      <trkpt lat="46.64882" lon="6.03343">
        <ele>894.16</ele>
        <time>2018-03-09T07:58:54Z</time>
      </trkpt>
      <trkpt lat="46.64882" lon="6.03362">
        <ele>894.16</ele>
        <time>2018-03-09T07:59:05Z</time>
      </trkpt>
      <trkpt lat="46.64885" lon="6.03366">
        <ele>894.16</ele>
        <time>2018-03-09T07:59:08Z</time>
      </trkpt>
      <trkpt lat="46.64886" lon="6.03371">
        <ele>894.16</ele>
        <time>2018-03-09T07:59:10Z</time>
      </trkpt>
      <trkpt lat="46.64888" lon="6.03386">
        <ele>894.64</ele>
        <time>2018-03-09T07:59:21Z</time>
      </trkpt>
      <trkpt lat="46.64891" lon="6.03407">
        <ele>894.64</ele>
        <time>2018-03-09T07:59:31Z</time>
      </trkpt>
      <trkpt lat="46.64897" lon="6.03417">
        <ele>896.09</ele>
        <time>2018-03-09T07:59:38Z</time>
      </trkpt>
      <trkpt lat="46.64899" lon="6.03428">
        <ele>895.61</ele>
        <time>2018-03-09T07:59:44Z</time>
      </trkpt>
      <trkpt lat="46.64902" lon="6.03433">
        <ele>896.57</ele>
        <time>2018-03-09T07:59:49Z</time>
      </trkpt>
      <trkpt lat="46.64903" lon="6.03441">
        <ele>897.53</ele>
        <time>2018-03-09T07:59:53Z</time>
      </trkpt>
      <trkpt lat="46.64906" lon="6.03449">
        <ele>897.53</ele>
        <time>2018-03-09T07:59:59Z</time>
      </trkpt>
      <trkpt lat="46.64907" lon="6.03465">
        <ele>898.01</ele>
        <time>2018-03-09T08:00:07Z</time>
      </trkpt>
      <trkpt lat="46.64908" lon="6.03471">
        <ele>898.49</ele>
        <time>2018-03-09T08:00:11Z</time>
      </trkpt>
      <trkpt lat="46.64914" lon="6.03489">
        <ele>898.97</ele>
        <time>2018-03-09T08:00:23Z</time>
      </trkpt>
      <trkpt lat="46.64917" lon="6.03499">
        <ele>899.93</ele>
        <time>2018-03-09T08:00:31Z</time>
      </trkpt>
      <trkpt lat="46.64923" lon="6.03512">
        <ele>900.41</ele>
        <time>2018-03-09T08:00:40Z</time>
      </trkpt>
      <trkpt lat="46.64926" lon="6.03516">
        <ele>899.93</ele>
        <time>2018-03-09T08:00:43Z</time>
      </trkpt>
      <trkpt lat="46.64928" lon="6.03518">
        <ele>900.41</ele>
        <time>2018-03-09T08:00:45Z</time>
      </trkpt>
      <trkpt lat="46.64936" lon="6.03536">
        <ele>901.37</ele>
        <time>2018-03-09T08:00:57Z</time>
      </trkpt>
      <trkpt lat="46.64939" lon="6.03548">
        <ele>901.37</ele>
        <time>2018-03-09T08:01:08Z</time>
      </trkpt>
      <trkpt lat="46.6494" lon="6.03561">
        <ele>900.89</ele>
        <time>2018-03-09T08:01:19Z</time>
      </trkpt>
      <trkpt lat="46.64941" lon="6.03564">
        <ele>900.89</ele>
        <time>2018-03-09T08:01:21Z</time>
      </trkpt>
      <trkpt lat="46.64943" lon="6.03571">
        <ele>900.89</ele>
        <time>2018-03-09T08:01:26Z</time>
      </trkpt>
      <trkpt lat="46.64945" lon="6.03582">
        <ele>903.3</ele>
        <time>2018-03-09T08:01:40Z</time>
      </trkpt>
      <trkpt lat="46.64942" lon="6.03589">
        <ele>904.26</ele>
        <time>2018-03-09T08:01:52Z</time>
      </trkpt>
      <trkpt lat="46.64945" lon="6.03593">
        <ele>902.82</ele>
        <time>2018-03-09T08:02:01Z</time>
      </trkpt>
      <trkpt lat="46.64955" lon="6.03602">
        <ele>903.3</ele>
        <time>2018-03-09T08:02:13Z</time>
      </trkpt>
      <trkpt lat="46.64958" lon="6.03606">
        <ele>903.3</ele>
        <time>2018-03-09T08:02:17Z</time>
      </trkpt>
      <trkpt lat="46.64973" lon="6.03618">
        <ele>904.74</ele>
        <time>2018-03-09T08:02:27Z</time>
      </trkpt>
      <trkpt lat="46.64974" lon="6.03619">
        <ele>904.74</ele>
        <time>2018-03-09T08:02:28Z</time>
      </trkpt>
      <trkpt lat="46.64977" lon="6.03625">
        <ele>905.7</ele>
        <time>2018-03-09T08:02:32Z</time>
      </trkpt>
      <trkpt lat="46.64987" lon="6.03636">
        <ele>907.14</ele>
        <time>2018-03-09T08:02:44Z</time>
      </trkpt>
      <trkpt lat="46.64991" lon="6.0364">
        <ele>907.62</ele>
        <time>2018-03-09T08:02:47Z</time>
      </trkpt>
      <trkpt lat="46.64999" lon="6.03658">
        <ele>908.1</ele>
        <time>2018-03-09T08:02:58Z</time>
      </trkpt>
      <trkpt lat="46.65006" lon="6.03672">
        <ele>909.54</ele>
        <time>2018-03-09T08:03:08Z</time>
      </trkpt>
      <trkpt lat="46.65008" lon="6.03678">
        <ele>910.03</ele>
        <time>2018-03-09T08:03:13Z</time>
      </trkpt>
      <trkpt lat="46.65019" lon="6.03685">
        <ele>911.95</ele>
        <time>2018-03-09T08:03:25Z</time>
      </trkpt>
      <trkpt lat="46.6502" lon="6.03685">
        <ele>911.95</ele>
        <time>2018-03-09T08:03:26Z</time>
      </trkpt>
      <trkpt lat="46.65029" lon="6.03686">
        <ele>914.35</ele>
        <time>2018-03-09T08:03:37Z</time>
      </trkpt>
      <trkpt lat="46.65036" lon="6.03685">
        <ele>914.83</ele>
        <time>2018-03-09T08:03:49Z</time>
      </trkpt>
      <trkpt lat="46.65037" lon="6.03685">
        <ele>915.79</ele>
        <time>2018-03-09T08:03:51Z</time>
      </trkpt>
      <trkpt lat="46.65044" lon="6.03687">
        <ele>916.75</ele>
        <time>2018-03-09T08:04:02Z</time>
      </trkpt>
      <trkpt lat="46.65056" lon="6.03693">
        <ele>918.68</ele>
        <time>2018-03-09T08:04:14Z</time>
      </trkpt>
      <trkpt lat="46.65063" lon="6.03696">
        <ele>920.12</ele>
        <time>2018-03-09T08:04:24Z</time>
      </trkpt>
      <trkpt lat="46.65077" lon="6.03699">
        <ele>921.56</ele>
        <time>2018-03-09T08:04:34Z</time>
      </trkpt>
      <trkpt lat="46.65084" lon="6.03706">
        <ele>923</ele>
        <time>2018-03-09T08:04:47Z</time>
      </trkpt>
      <trkpt lat="46.6509" lon="6.03713">
        <ele>923.48</ele>
        <time>2018-03-09T08:05:01Z</time>
      </trkpt>
      <trkpt lat="46.65097" lon="6.0372">
        <ele>923.96</ele>
        <time>2018-03-09T08:05:16Z</time>
      </trkpt>
      <trkpt lat="46.65107" lon="6.03725">
        <ele>924.45</ele>
        <time>2018-03-09T08:05:28Z</time>
      </trkpt>
      <trkpt lat="46.65117" lon="6.03727">
        <ele>925.89</ele>
        <time>2018-03-09T08:05:39Z</time>
      </trkpt>
      <trkpt lat="46.6513" lon="6.03726">
        <ele>926.85</ele>
        <time>2018-03-09T08:05:51Z</time>
      </trkpt>
      <trkpt lat="46.65132" lon="6.03727">
        <ele>926.85</ele>
        <time>2018-03-09T08:05:53Z</time>
      </trkpt>
      <trkpt lat="46.6514" lon="6.03742">
        <ele>927.33</ele>
        <time>2018-03-09T08:06:05Z</time>
      </trkpt>
      <trkpt lat="46.65146" lon="6.03754">
        <ele>927.33</ele>
        <time>2018-03-09T08:06:15Z</time>
      </trkpt>
      <trkpt lat="46.65148" lon="6.03759">
        <ele>927.81</ele>
        <time>2018-03-09T08:06:17Z</time>
      </trkpt>
      <trkpt lat="46.65153" lon="6.03777">
        <ele>927.81</ele>
        <time>2018-03-09T08:06:26Z</time>
      </trkpt>
      <trkpt lat="46.65159" lon="6.03791">
        <ele>928.29</ele>
        <time>2018-03-09T08:06:34Z</time>
      </trkpt>
      <trkpt lat="46.65163" lon="6.03799">
        <ele>933.1</ele>
        <time>2018-03-09T08:06:38Z</time>
      </trkpt>
      <trkpt lat="46.65164" lon="6.03801">
        <ele>928.77</ele>
        <time>2018-03-09T08:06:39Z</time>
      </trkpt>
      <trkpt lat="46.65166" lon="6.03806">
        <ele>923.96</ele>
        <time>2018-03-09T08:06:42Z</time>
      </trkpt>
      <trkpt lat="46.65166" lon="6.03808">
        <ele>930.69</ele>
        <time>2018-03-09T08:06:43Z</time>
      </trkpt>
      <trkpt lat="46.65166" lon="6.03809">
        <ele>929.25</ele>
        <time>2018-03-09T08:06:44Z</time>
      </trkpt>
      <trkpt lat="46.65169" lon="6.03813">
        <ele>929.25</ele>
        <time>2018-03-09T08:06:47Z</time>
      </trkpt>
      <trkpt lat="46.65176" lon="6.0383">
        <ele>930.69</ele>
        <time>2018-03-09T08:06:59Z</time>
      </trkpt>
      <trkpt lat="46.65177" lon="6.03832">
        <ele>930.21</ele>
        <time>2018-03-09T08:07:01Z</time>
      </trkpt>
      <trkpt lat="46.65183" lon="6.03847">
        <ele>929.73</ele>
        <time>2018-03-09T08:07:12Z</time>
      </trkpt>
      <trkpt lat="46.65185" lon="6.03851">
        <ele>929.73</ele>
        <time>2018-03-09T08:07:16Z</time>
      </trkpt>
      <trkpt lat="46.65188" lon="6.03864">
        <ele>930.21</ele>
        <time>2018-03-09T08:07:23Z</time>
      </trkpt>
      <trkpt lat="46.65188" lon="6.03869">
        <ele>929.73</ele>
        <time>2018-03-09T08:07:27Z</time>
      </trkpt>
      <trkpt lat="46.65194" lon="6.03886">
        <ele>930.69</ele>
        <time>2018-03-09T08:07:39Z</time>
      </trkpt>
      <trkpt lat="46.65195" lon="6.03888">
        <ele>930.69</ele>
        <time>2018-03-09T08:07:40Z</time>
      </trkpt>
      <trkpt lat="46.65195" lon="6.03894">
        <ele>930.69</ele>
        <time>2018-03-09T08:07:43Z</time>
      </trkpt>
      <trkpt lat="46.65197" lon="6.039">
        <ele>931.17</ele>
        <time>2018-03-09T08:07:47Z</time>
      </trkpt>
      <trkpt lat="46.65208" lon="6.03908">
        <ele>932.14</ele>
        <time>2018-03-09T08:07:59Z</time>
      </trkpt>
      <trkpt lat="46.65209" lon="6.03908">
        <ele>931.65</ele>
        <time>2018-03-09T08:08:05Z</time>
      </trkpt>
      <trkpt lat="46.65214" lon="6.03922">
        <ele>931.65</ele>
        <time>2018-03-09T08:08:18Z</time>
      </trkpt>
      <trkpt lat="46.65215" lon="6.03926">
        <ele>931.65</ele>
        <time>2018-03-09T08:08:22Z</time>
      </trkpt>
      <trkpt lat="46.65221" lon="6.03936">
        <ele>931.65</ele>
        <time>2018-03-09T08:08:27Z</time>
      </trkpt>
      <trkpt lat="46.65226" lon="6.03948">
        <ele>931.65</ele>
        <time>2018-03-09T08:08:34Z</time>
      </trkpt>
      <trkpt lat="46.65232" lon="6.03954">
        <ele>931.65</ele>
        <time>2018-03-09T08:08:39Z</time>
      </trkpt>
      <trkpt lat="46.65236" lon="6.03958">
        <ele>931.65</ele>
        <time>2018-03-09T08:08:43Z</time>
      </trkpt>
      <trkpt lat="46.6524" lon="6.03965">
        <ele>931.65</ele>
        <time>2018-03-09T08:08:47Z</time>
      </trkpt>
      <trkpt lat="46.65252" lon="6.03984">
        <ele>932.14</ele>
        <time>2018-03-09T08:08:58Z</time>
      </trkpt>
      <trkpt lat="46.65268" lon="6.0401">
        <ele>933.58</ele>
        <time>2018-03-09T08:09:13Z</time>
      </trkpt>
      <trkpt lat="46.65282" lon="6.04035">
        <ele>932.14</ele>
        <time>2018-03-09T08:09:27Z</time>
      </trkpt>
      <trkpt lat="46.65287" lon="6.04044">
        <ele>931.65</ele>
        <time>2018-03-09T08:09:33Z</time>
      </trkpt>
      <trkpt lat="46.65287" lon="6.04055">
        <ele>930.69</ele>
        <time>2018-03-09T08:09:46Z</time>
      </trkpt>
      <trkpt lat="46.65286" lon="6.04055">
        <ele>931.17</ele>
        <time>2018-03-09T08:10:13Z</time>
      </trkpt>
      <trkpt lat="46.65285" lon="6.0406">
        <ele>930.21</ele>
        <time>2018-03-09T08:10:28Z</time>
      </trkpt>
      <trkpt lat="46.65271" lon="6.04078">
        <ele>930.69</ele>
        <time>2018-03-09T08:10:40Z</time>
      </trkpt>
      <trkpt lat="46.65269" lon="6.04081">
        <ele>930.69</ele>
        <time>2018-03-09T08:10:42Z</time>
      </trkpt>
      <trkpt lat="46.65264" lon="6.04089">
        <ele>930.21</ele>
        <time>2018-03-09T08:10:50Z</time>
      </trkpt>
      <trkpt lat="46.65254" lon="6.04094">
        <ele>929.25</ele>
        <time>2018-03-09T08:10:57Z</time>
      </trkpt>
      <trkpt lat="46.65249" lon="6.04095">
        <ele>928.77</ele>
        <time>2018-03-09T08:11:00Z</time>
      </trkpt>
      <trkpt lat="46.65232" lon="6.04085">
        <ele>926.85</ele>
        <time>2018-03-09T08:11:12Z</time>
      </trkpt>
      <trkpt lat="46.65223" lon="6.04079">
        <ele>924.45</ele>
        <time>2018-03-09T08:11:22Z</time>
      </trkpt>
      <trkpt lat="46.65211" lon="6.0408">
        <ele>922.52</ele>
        <time>2018-03-09T08:11:32Z</time>
      </trkpt>
      <trkpt lat="46.65205" lon="6.04083">
        <ele>922.04</ele>
        <time>2018-03-09T08:11:36Z</time>
      </trkpt>
      <trkpt lat="46.65189" lon="6.04091">
        <ele>920.12</ele>
        <time>2018-03-09T08:11:51Z</time>
      </trkpt>
      <trkpt lat="46.65171" lon="6.04099">
        <ele>918.2</ele>
        <time>2018-03-09T08:12:03Z</time>
      </trkpt>
      <trkpt lat="46.65163" lon="6.04098">
        <ele>917.24</ele>
        <time>2018-03-09T08:12:08Z</time>
      </trkpt>
      <trkpt lat="46.65145" lon="6.04106">
        <ele>915.79</ele>
        <time>2018-03-09T08:12:23Z</time>
      </trkpt>
      <trkpt lat="46.65125" lon="6.04123">
        <ele>913.87</ele>
        <time>2018-03-09T08:12:38Z</time>
      </trkpt>
      <trkpt lat="46.65112" lon="6.04129">
        <ele>912.91</ele>
        <time>2018-03-09T08:12:48Z</time>
      </trkpt>
      <trkpt lat="46.65098" lon="6.04138">
        <ele>911.47</ele>
        <time>2018-03-09T08:13:02Z</time>
      </trkpt>
      <trkpt lat="46.65087" lon="6.04147">
        <ele>910.51</ele>
        <time>2018-03-09T08:13:13Z</time>
      </trkpt>
      <trkpt lat="46.65078" lon="6.04158">
        <ele>910.99</ele>
        <time>2018-03-09T08:13:23Z</time>
      </trkpt>
      <trkpt lat="46.65068" lon="6.04174">
        <ele>910.99</ele>
        <time>2018-03-09T08:13:34Z</time>
      </trkpt>
      <trkpt lat="46.65067" lon="6.04178">
        <ele>910.99</ele>
        <time>2018-03-09T08:13:36Z</time>
      </trkpt>
      <trkpt lat="46.65056" lon="6.04196">
        <ele>910.99</ele>
        <time>2018-03-09T08:13:48Z</time>
      </trkpt>
      <trkpt lat="46.65051" lon="6.04216">
        <ele>911.47</ele>
        <time>2018-03-09T08:14:00Z</time>
      </trkpt>
      <trkpt lat="46.6505" lon="6.04223">
        <ele>911.95</ele>
        <time>2018-03-09T08:14:04Z</time>
      </trkpt>
      <trkpt lat="46.65043" lon="6.04247">
        <ele>912.43</ele>
        <time>2018-03-09T08:14:13Z</time>
      </trkpt>
      <trkpt lat="46.65039" lon="6.0426">
        <ele>912.43</ele>
        <time>2018-03-09T08:14:19Z</time>
      </trkpt>
      <trkpt lat="46.65041" lon="6.04271">
        <ele>912.91</ele>
        <time>2018-03-09T08:14:27Z</time>
      </trkpt>
      <trkpt lat="46.6504" lon="6.04299">
        <ele>913.87</ele>
        <time>2018-03-09T08:14:40Z</time>
      </trkpt>
      <trkpt lat="46.65041" lon="6.043">
        <ele>914.35</ele>
        <time>2018-03-09T08:14:41Z</time>
      </trkpt>
      <trkpt lat="46.65043" lon="6.04316">
        <ele>915.31</ele>
        <time>2018-03-09T08:14:51Z</time>
      </trkpt>
      <trkpt lat="46.65045" lon="6.04328">
        <ele>915.31</ele>
        <time>2018-03-09T08:15:01Z</time>
      </trkpt>
      <trkpt lat="46.65045" lon="6.0434">
        <ele>916.27</ele>
        <time>2018-03-09T08:15:11Z</time>
      </trkpt>
      <trkpt lat="46.65044" lon="6.04344">
        <ele>916.27</ele>
        <time>2018-03-09T08:15:14Z</time>
      </trkpt>
      <trkpt lat="46.65042" lon="6.04358">
        <ele>917.72</ele>
        <time>2018-03-09T08:15:27Z</time>
      </trkpt>
      <trkpt lat="46.65041" lon="6.0436">
        <ele>917.72</ele>
        <time>2018-03-09T08:15:28Z</time>
      </trkpt>
      <trkpt lat="46.65042" lon="6.04376">
        <ele>919.16</ele>
        <time>2018-03-09T08:15:37Z</time>
      </trkpt>
      <trkpt lat="46.65044" lon="6.04382">
        <ele>919.64</ele>
        <time>2018-03-09T08:15:40Z</time>
      </trkpt>
      <trkpt lat="46.65052" lon="6.04395">
        <ele>921.08</ele>
        <time>2018-03-09T08:15:50Z</time>
      </trkpt>
      <trkpt lat="46.65054" lon="6.04403">
        <ele>921.08</ele>
        <time>2018-03-09T08:15:58Z</time>
      </trkpt>
      <trkpt lat="46.65037" lon="6.0443">
        <ele>922.04</ele>
        <time>2018-03-09T08:16:08Z</time>
      </trkpt>
      <trkpt lat="46.65033" lon="6.04436">
        <ele>922.04</ele>
        <time>2018-03-09T08:16:12Z</time>
      </trkpt>
      <trkpt lat="46.65031" lon="6.04441">
        <ele>922.04</ele>
        <time>2018-03-09T08:16:15Z</time>
      </trkpt>
      <trkpt lat="46.65009" lon="6.04457">
        <ele>920.6</ele>
        <time>2018-03-09T08:16:31Z</time>
      </trkpt>
      <trkpt lat="46.65009" lon="6.04457">
        <ele>920.6</ele>
        <time>2018-03-09T08:16:32Z</time>
      </trkpt>
      <trkpt lat="46.65009" lon="6.04462">
        <ele>920.6</ele>
        <time>2018-03-09T08:16:35Z</time>
      </trkpt>
      <trkpt lat="46.64998" lon="6.04478">
        <ele>917.72</ele>
        <time>2018-03-09T08:16:47Z</time>
      </trkpt>
      <trkpt lat="46.64986" lon="6.04494">
        <ele>915.79</ele>
        <time>2018-03-09T08:16:59Z</time>
      </trkpt>
      <trkpt lat="46.64975" lon="6.04512">
        <ele>915.31</ele>
        <time>2018-03-09T08:17:10Z</time>
      </trkpt>
      <trkpt lat="46.64972" lon="6.04517">
        <ele>915.79</ele>
        <time>2018-03-09T08:17:13Z</time>
      </trkpt>
      <trkpt lat="46.64967" lon="6.04525">
        <ele>915.79</ele>
        <time>2018-03-09T08:17:19Z</time>
      </trkpt>
      <trkpt lat="46.64962" lon="6.04531">
        <ele>915.31</ele>
        <time>2018-03-09T08:17:24Z</time>
      </trkpt>
      <trkpt lat="46.64951" lon="6.0454">
        <ele>914.83</ele>
        <time>2018-03-09T08:17:33Z</time>
      </trkpt>
      <trkpt lat="46.64945" lon="6.04546">
        <ele>913.87</ele>
        <time>2018-03-09T08:17:38Z</time>
      </trkpt>
      <trkpt lat="46.64928" lon="6.04553">
        <ele>913.87</ele>
        <time>2018-03-09T08:17:50Z</time>
      </trkpt>
      <trkpt lat="46.64923" lon="6.04555">
        <ele>912.43</ele>
        <time>2018-03-09T08:17:54Z</time>
      </trkpt>
      <trkpt lat="46.6492" lon="6.04557">
        <ele>912.43</ele>
        <time>2018-03-09T08:17:56Z</time>
      </trkpt>
      <trkpt lat="46.64915" lon="6.04566">
        <ele>911.47</ele>
        <time>2018-03-09T08:18:05Z</time>
      </trkpt>
      <trkpt lat="46.64911" lon="6.04574">
        <ele>910.99</ele>
        <time>2018-03-09T08:18:10Z</time>
      </trkpt>
      <trkpt lat="46.64911" lon="6.04603">
        <ele>908.1</ele>
        <time>2018-03-09T08:18:24Z</time>
      </trkpt>
      <trkpt lat="46.64909" lon="6.0462">
        <ele>908.1</ele>
        <time>2018-03-09T08:18:32Z</time>
      </trkpt>
      <trkpt lat="46.64898" lon="6.04642">
        <ele>906.66</ele>
        <time>2018-03-09T08:18:45Z</time>
      </trkpt>
      <trkpt lat="46.64884" lon="6.04662">
        <ele>905.22</ele>
        <time>2018-03-09T08:18:57Z</time>
      </trkpt>
      <trkpt lat="46.64882" lon="6.04665">
        <ele>904.26</ele>
        <time>2018-03-09T08:18:59Z</time>
      </trkpt>
      <trkpt lat="46.6487" lon="6.04682">
        <ele>902.33</ele>
        <time>2018-03-09T08:19:14Z</time>
      </trkpt>
      <trkpt lat="46.6487" lon="6.04679">
        <ele>902.82</ele>
        <time>2018-03-09T08:19:23Z</time>
      </trkpt>
      <trkpt lat="46.64861" lon="6.04697">
        <ele>900.41</ele>
        <time>2018-03-09T08:19:37Z</time>
      </trkpt>
      <trkpt lat="46.64849" lon="6.04708">
        <ele>897.05</ele>
        <time>2018-03-09T08:19:48Z</time>
      </trkpt>
      <trkpt lat="46.64845" lon="6.04714">
        <ele>896.57</ele>
        <time>2018-03-09T08:19:52Z</time>
      </trkpt>
      <trkpt lat="46.64826" lon="6.04724">
        <ele>895.12</ele>
        <time>2018-03-09T08:20:05Z</time>
      </trkpt>
      <trkpt lat="46.6481" lon="6.0473">
        <ele>894.16</ele>
        <time>2018-03-09T08:20:16Z</time>
      </trkpt>
      <trkpt lat="46.64798" lon="6.04733">
        <ele>892.24</ele>
        <time>2018-03-09T08:20:27Z</time>
      </trkpt>
      <trkpt lat="46.64796" lon="6.04735">
        <ele>892.24</ele>
        <time>2018-03-09T08:20:36Z</time>
      </trkpt>
      <trkpt lat="46.64792" lon="6.0474">
        <ele>891.28</ele>
        <time>2018-03-09T08:20:41Z</time>
      </trkpt>
      <trkpt lat="46.64783" lon="6.04767">
        <ele>888.4</ele>
        <time>2018-03-09T08:20:54Z</time>
      </trkpt>
      <trkpt lat="46.6478" lon="6.04794">
        <ele>886.47</ele>
        <time>2018-03-09T08:21:07Z</time>
      </trkpt>
      <trkpt lat="46.64779" lon="6.04812">
        <ele>885.51</ele>
        <time>2018-03-09T08:21:16Z</time>
      </trkpt>
      <trkpt lat="46.64777" lon="6.04831">
        <ele>883.59</ele>
        <time>2018-03-09T08:21:27Z</time>
      </trkpt>
      <trkpt lat="46.64782" lon="6.04863">
        <ele>881.19</ele>
        <time>2018-03-09T08:21:43Z</time>
      </trkpt>
      <trkpt lat="46.64784" lon="6.04875">
        <ele>880.71</ele>
        <time>2018-03-09T08:21:49Z</time>
      </trkpt>
      <trkpt lat="46.64786" lon="6.04885">
        <ele>880.22</ele>
        <time>2018-03-09T08:21:54Z</time>
      </trkpt>
      <trkpt lat="46.64786" lon="6.04895">
        <ele>879.74</ele>
        <time>2018-03-09T08:21:58Z</time>
      </trkpt>
      <trkpt lat="46.64785" lon="6.04902">
        <ele>879.26</ele>
        <time>2018-03-09T08:22:01Z</time>
      </trkpt>
      <trkpt lat="46.64787" lon="6.04912">
        <ele>879.26</ele>
        <time>2018-03-09T08:22:06Z</time>
      </trkpt>
      <trkpt lat="46.64787" lon="6.04918">
        <ele>878.78</ele>
        <time>2018-03-09T08:22:08Z</time>
      </trkpt>
      <trkpt lat="46.64787" lon="6.04923">
        <ele>878.78</ele>
        <time>2018-03-09T08:22:11Z</time>
      </trkpt>
      <trkpt lat="46.64788" lon="6.04946">
        <ele>876.86</ele>
        <time>2018-03-09T08:22:22Z</time>
      </trkpt>
      <trkpt lat="46.64788" lon="6.04948">
        <ele>876.86</ele>
        <time>2018-03-09T08:22:23Z</time>
      </trkpt>
      <trkpt lat="46.64791" lon="6.0497">
        <ele>876.86</ele>
        <time>2018-03-09T08:22:34Z</time>
      </trkpt>
      <trkpt lat="46.64793" lon="6.04986">
        <ele>876.38</ele>
        <time>2018-03-09T08:22:41Z</time>
      </trkpt>
      <trkpt lat="46.64792" lon="6.04995">
        <ele>875.9</ele>
        <time>2018-03-09T08:22:46Z</time>
      </trkpt>
      <trkpt lat="46.64791" lon="6.0501">
        <ele>875.42</ele>
        <time>2018-03-09T08:22:53Z</time>
      </trkpt>
      <trkpt lat="46.64795" lon="6.05025">
        <ele>873.01</ele>
        <time>2018-03-09T08:23:05Z</time>
      </trkpt>
      <trkpt lat="46.64794" lon="6.05026">
        <ele>872.05</ele>
        <time>2018-03-09T08:23:07Z</time>
      </trkpt>
      <trkpt lat="46.64795" lon="6.05035">
        <ele>870.61</ele>
        <time>2018-03-09T08:23:16Z</time>
      </trkpt>
      <trkpt lat="46.648" lon="6.05049">
        <ele>868.69</ele>
        <time>2018-03-09T08:23:26Z</time>
      </trkpt>
      <trkpt lat="46.64801" lon="6.0505">
        <ele>868.69</ele>
        <time>2018-03-09T08:23:28Z</time>
      </trkpt>
      <trkpt lat="46.6479" lon="6.05069">
        <ele>868.69</ele>
        <time>2018-03-09T08:23:41Z</time>
      </trkpt>
      <trkpt lat="46.64786" lon="6.05081">
        <ele>868.69</ele>
        <time>2018-03-09T08:23:50Z</time>
      </trkpt>
      <trkpt lat="46.64791" lon="6.05092">
        <ele>868.69</ele>
        <time>2018-03-09T08:24:00Z</time>
      </trkpt>
      <trkpt lat="46.64793" lon="6.05093">
        <ele>867.73</ele>
        <time>2018-03-09T08:24:04Z</time>
      </trkpt>
      <trkpt lat="46.64796" lon="6.05102">
        <ele>867.73</ele>
        <time>2018-03-09T08:24:11Z</time>
      </trkpt>
      <trkpt lat="46.64796" lon="6.05127">
        <ele>866.29</ele>
        <time>2018-03-09T08:24:22Z</time>
      </trkpt>
      <trkpt lat="46.64793" lon="6.0515">
        <ele>865.32</ele>
        <time>2018-03-09T08:24:31Z</time>
      </trkpt>
      <trkpt lat="46.6479" lon="6.05161">
        <ele>863.88</ele>
        <time>2018-03-09T08:24:35Z</time>
      </trkpt>
      <trkpt lat="46.64789" lon="6.05166">
        <ele>863.4</ele>
        <time>2018-03-09T08:24:38Z</time>
      </trkpt>
      <trkpt lat="46.64786" lon="6.05175">
        <ele>862.44</ele>
        <time>2018-03-09T08:24:43Z</time>
      </trkpt>
      <trkpt lat="46.64773" lon="6.05198">
        <ele>861</ele>
        <time>2018-03-09T08:24:55Z</time>
      </trkpt>
      <trkpt lat="46.64759" lon="6.05205">
        <ele>859.08</ele>
        <time>2018-03-09T08:25:11Z</time>
      </trkpt>
      <trkpt lat="46.64754" lon="6.05206">
        <ele>858.59</ele>
        <time>2018-03-09T08:25:14Z</time>
      </trkpt>
      <trkpt lat="46.64749" lon="6.05204">
        <ele>857.63</ele>
        <time>2018-03-09T08:25:17Z</time>
      </trkpt>
      <trkpt lat="46.64731" lon="6.05205">
        <ele>855.71</ele>
        <time>2018-03-09T08:25:32Z</time>
      </trkpt>
      <trkpt lat="46.64715" lon="6.052">
        <ele>853.79</ele>
        <time>2018-03-09T08:25:42Z</time>
      </trkpt>
      <trkpt lat="46.64697" lon="6.0519">
        <ele>852.35</ele>
        <time>2018-03-09T08:25:56Z</time>
      </trkpt>
      <trkpt lat="46.64689" lon="6.05184">
        <ele>849.46</ele>
        <time>2018-03-09T08:26:04Z</time>
      </trkpt>
      <trkpt lat="46.64684" lon="6.05184">
        <ele>848.5</ele>
        <time>2018-03-09T08:26:08Z</time>
      </trkpt>
      <trkpt lat="46.64681" lon="6.05182">
        <ele>847.06</ele>
        <time>2018-03-09T08:26:11Z</time>
      </trkpt>
      <trkpt lat="46.64673" lon="6.05176">
        <ele>846.1</ele>
        <time>2018-03-09T08:26:18Z</time>
      </trkpt>
      <trkpt lat="46.64669" lon="6.05167">
        <ele>845.62</ele>
        <time>2018-03-09T08:26:23Z</time>
      </trkpt>
      <trkpt lat="46.64663" lon="6.05157">
        <ele>845.62</ele>
        <time>2018-03-09T08:26:28Z</time>
      </trkpt>
      <trkpt lat="46.6466" lon="6.05151">
        <ele>844.66</ele>
        <time>2018-03-09T08:26:33Z</time>
      </trkpt>
      <trkpt lat="46.64654" lon="6.05139">
        <ele>843.69</ele>
        <time>2018-03-09T08:26:40Z</time>
      </trkpt>
      <trkpt lat="46.64647" lon="6.05124">
        <ele>842.25</ele>
        <time>2018-03-09T08:26:53Z</time>
      </trkpt>
      <trkpt lat="46.6464" lon="6.05124">
        <ele>840.33</ele>
        <time>2018-03-09T08:27:06Z</time>
      </trkpt>
      <trkpt lat="46.6464" lon="6.05125">
        <ele>840.33</ele>
        <time>2018-03-09T08:27:16Z</time>
      </trkpt>
      <trkpt lat="46.64637" lon="6.05122">
        <ele>839.85</ele>
        <time>2018-03-09T08:27:28Z</time>
      </trkpt>
      <trkpt lat="46.64629" lon="6.05119">
        <ele>838.41</ele>
        <time>2018-03-09T08:27:48Z</time>
      </trkpt>
      <trkpt lat="46.64628" lon="6.0512">
        <ele>838.41</ele>
        <time>2018-03-09T08:27:49Z</time>
      </trkpt>
      <trkpt lat="46.6462" lon="6.05123">
        <ele>838.41</ele>
        <time>2018-03-09T08:27:56Z</time>
      </trkpt>
      <trkpt lat="46.64606" lon="6.05115">
        <ele>836.48</ele>
        <time>2018-03-09T08:28:08Z</time>
      </trkpt>
      <trkpt lat="46.64602" lon="6.0511">
        <ele>836.48</ele>
        <time>2018-03-09T08:28:12Z</time>
      </trkpt>
      <trkpt lat="46.64593" lon="6.05089">
        <ele>835.04</ele>
        <time>2018-03-09T08:28:25Z</time>
      </trkpt>
      <trkpt lat="46.64584" lon="6.05073">
        <ele>835.52</ele>
        <time>2018-03-09T08:28:36Z</time>
      </trkpt>
      <trkpt lat="46.64572" lon="6.05044">
        <ele>835.52</ele>
        <time>2018-03-09T08:28:50Z</time>
      </trkpt>
      <trkpt lat="46.6457" lon="6.0504">
        <ele>835.52</ele>
        <time>2018-03-09T08:29:08Z</time>
      </trkpt>
      <trkpt lat="46.6457" lon="6.05038">
        <ele>836</ele>
        <time>2018-03-09T08:29:32Z</time>
      </trkpt>
      <trkpt lat="46.64569" lon="6.05036">
        <ele>836</ele>
        <time>2018-03-09T08:29:48Z</time>
      </trkpt>
      <trkpt lat="46.64569" lon="6.05036">
        <ele>836</ele>
        <time>2018-03-09T08:29:57Z</time>
      </trkpt>
      <trkpt lat="46.64567" lon="6.05032">
        <ele>836</ele>
        <time>2018-03-09T08:30:01Z</time>
      </trkpt>
      <trkpt lat="46.64565" lon="6.05027">
        <ele>835.52</ele>
        <time>2018-03-09T08:30:03Z</time>
      </trkpt>
      <trkpt lat="46.64552" lon="6.05011">
        <ele>835.52</ele>
        <time>2018-03-09T08:30:17Z</time>
      </trkpt>
      <trkpt lat="46.64543" lon="6.05">
        <ele>836</ele>
        <time>2018-03-09T08:30:26Z</time>
      </trkpt>
      <trkpt lat="46.64532" lon="6.04977">
        <ele>835.52</ele>
        <time>2018-03-09T08:30:39Z</time>
      </trkpt>
      <trkpt lat="46.6453" lon="6.04973">
        <ele>836.48</ele>
        <time>2018-03-09T08:30:42Z</time>
      </trkpt>
      <trkpt lat="46.64524" lon="6.04964">
        <ele>837.45</ele>
        <time>2018-03-09T08:30:53Z</time>
      </trkpt>
      <trkpt lat="46.64515" lon="6.04949">
        <ele>838.89</ele>
        <time>2018-03-09T08:31:05Z</time>
      </trkpt>
      <trkpt lat="46.64501" lon="6.04936">
        <ele>839.85</ele>
        <time>2018-03-09T08:31:16Z</time>
      </trkpt>
      <trkpt lat="46.64487" lon="6.04941">
        <ele>840.81</ele>
        <time>2018-03-09T08:31:27Z</time>
      </trkpt>
      <trkpt lat="46.64482" lon="6.04949">
        <ele>841.77</ele>
        <time>2018-03-09T08:31:33Z</time>
      </trkpt>
      <trkpt lat="46.64467" lon="6.04962">
        <ele>842.73</ele>
        <time>2018-03-09T08:31:47Z</time>
      </trkpt>
      <trkpt lat="46.64454" lon="6.0497">
        <ele>843.69</ele>
        <time>2018-03-09T08:32:00Z</time>
      </trkpt>
      <trkpt lat="46.64447" lon="6.04971">
        <ele>843.69</ele>
        <time>2018-03-09T08:32:14Z</time>
      </trkpt>
      <trkpt lat="46.64431" lon="6.04966">
        <ele>842.73</ele>
        <time>2018-03-09T08:32:27Z</time>
      </trkpt>
      <trkpt lat="46.64413" lon="6.04958">
        <ele>842.25</ele>
        <time>2018-03-09T08:32:43Z</time>
      </trkpt>
      <trkpt lat="46.64412" lon="6.04958">
        <ele>841.77</ele>
        <time>2018-03-09T08:32:44Z</time>
      </trkpt>
      <trkpt lat="46.64403" lon="6.04944">
        <ele>841.77</ele>
        <time>2018-03-09T08:32:53Z</time>
      </trkpt>
      <trkpt lat="46.64396" lon="6.04915">
        <ele>841.29</ele>
        <time>2018-03-09T08:33:09Z</time>
      </trkpt>
      <trkpt lat="46.64394" lon="6.04902">
        <ele>841.77</ele>
        <time>2018-03-09T08:33:16Z</time>
      </trkpt>
      <trkpt lat="46.64394" lon="6.04885">
        <ele>841.77</ele>
        <time>2018-03-09T08:33:26Z</time>
      </trkpt>
      <trkpt lat="46.64395" lon="6.04861">
        <ele>842.25</ele>
        <time>2018-03-09T08:33:39Z</time>
      </trkpt>
      <trkpt lat="46.64396" lon="6.04839">
        <ele>841.77</ele>
        <time>2018-03-09T08:33:53Z</time>
      </trkpt>
      <trkpt lat="46.64399" lon="6.04814">
        <ele>841.77</ele>
        <time>2018-03-09T08:34:06Z</time>
      </trkpt>
      <trkpt lat="46.64403" lon="6.04791">
        <ele>842.25</ele>
        <time>2018-03-09T08:34:20Z</time>
      </trkpt>
      <trkpt lat="46.64403" lon="6.04787">
        <ele>842.73</ele>
        <time>2018-03-09T08:34:22Z</time>
      </trkpt>
      <trkpt lat="46.64403" lon="6.04778">
        <ele>842.73</ele>
        <time>2018-03-09T08:34:27Z</time>
      </trkpt>
      <trkpt lat="46.64398" lon="6.0475">
        <ele>842.25</ele>
        <time>2018-03-09T08:34:40Z</time>
      </trkpt>
      <trkpt lat="46.64392" lon="6.04724">
        <ele>840.33</ele>
        <time>2018-03-09T08:34:53Z</time>
      </trkpt>
      <trkpt lat="46.64389" lon="6.04717">
        <ele>841.29</ele>
        <time>2018-03-09T08:34:58Z</time>
      </trkpt>
      <trkpt lat="46.64387" lon="6.04694">
        <ele>839.85</ele>
        <time>2018-03-09T08:35:10Z</time>
      </trkpt>
      <trkpt lat="46.64385" lon="6.04681">
        <ele>840.81</ele>
        <time>2018-03-09T08:35:22Z</time>
      </trkpt>
      <trkpt lat="46.64382" lon="6.04671">
        <ele>840.81</ele>
        <time>2018-03-09T08:35:33Z</time>
      </trkpt>
      <trkpt lat="46.64381" lon="6.0466">
        <ele>841.77</ele>
        <time>2018-03-09T08:35:46Z</time>
      </trkpt>
      <trkpt lat="46.64379" lon="6.04641">
        <ele>843.21</ele>
        <time>2018-03-09T08:35:58Z</time>
      </trkpt>
      <trkpt lat="46.64378" lon="6.04621">
        <ele>843.69</ele>
        <time>2018-03-09T08:36:04Z</time>
      </trkpt>
      <trkpt lat="46.64374" lon="6.04586">
        <ele>845.62</ele>
        <time>2018-03-09T08:36:16Z</time>
      </trkpt>
      <trkpt lat="46.64369" lon="6.04551">
        <ele>848.02</ele>
        <time>2018-03-09T08:36:30Z</time>
      </trkpt>
      <trkpt lat="46.64365" lon="6.04533">
        <ele>849.46</ele>
        <time>2018-03-09T08:36:43Z</time>
      </trkpt>
      <trkpt lat="46.64364" lon="6.04529">
        <ele>849.46</ele>
        <time>2018-03-09T08:36:46Z</time>
      </trkpt>
      <trkpt lat="46.64363" lon="6.04501">
        <ele>849.94</ele>
        <time>2018-03-09T08:37:00Z</time>
      </trkpt>
      <trkpt lat="46.64361" lon="6.04486">
        <ele>850.42</ele>
        <time>2018-03-09T08:37:13Z</time>
      </trkpt>
      <trkpt lat="46.6436" lon="6.0449">
        <ele>850.42</ele>
        <time>2018-03-09T08:37:19Z</time>
      </trkpt>
      <trkpt lat="46.64372" lon="6.04477">
        <ele>849.46</ele>
        <time>2018-03-09T08:37:33Z</time>
      </trkpt>
      <trkpt lat="46.64384" lon="6.04458">
        <ele>848.02</ele>
        <time>2018-03-09T08:37:47Z</time>
      </trkpt>
      <trkpt lat="46.64386" lon="6.04452">
        <ele>847.54</ele>
        <time>2018-03-09T08:37:51Z</time>
      </trkpt>
      <trkpt lat="46.64392" lon="6.04429">
        <ele>845.62</ele>
        <time>2018-03-09T08:38:06Z</time>
      </trkpt>
      <trkpt lat="46.64391" lon="6.04403">
        <ele>845.62</ele>
        <time>2018-03-09T08:38:20Z</time>
      </trkpt>
      <trkpt lat="46.6439" lon="6.04391">
        <ele>845.14</ele>
        <time>2018-03-09T08:38:26Z</time>
      </trkpt>
      <trkpt lat="46.64389" lon="6.04373">
        <ele>844.66</ele>
        <time>2018-03-09T08:38:36Z</time>
      </trkpt>
      <trkpt lat="46.64392" lon="6.04358">
        <ele>845.14</ele>
        <time>2018-03-09T08:38:48Z</time>
      </trkpt>
      <trkpt lat="46.64394" lon="6.04353">
        <ele>845.62</ele>
        <time>2018-03-09T08:38:52Z</time>
      </trkpt>
      <trkpt lat="46.64391" lon="6.04337">
        <ele>844.18</ele>
        <time>2018-03-09T08:39:05Z</time>
      </trkpt>
      <trkpt lat="46.64389" lon="6.04316">
        <ele>844.18</ele>
        <time>2018-03-09T08:39:18Z</time>
      </trkpt>
      <trkpt lat="46.6439" lon="6.04306">
        <ele>843.69</ele>
        <time>2018-03-09T08:39:22Z</time>
      </trkpt>
      <trkpt lat="46.64386" lon="6.04282">
        <ele>843.69</ele>
        <time>2018-03-09T08:39:34Z</time>
      </trkpt>
      <trkpt lat="46.64391" lon="6.04266">
        <ele>842.73</ele>
        <time>2018-03-09T08:39:44Z</time>
      </trkpt>
      <trkpt lat="46.64393" lon="6.04261">
        <ele>842.25</ele>
        <time>2018-03-09T08:39:48Z</time>
      </trkpt>
      <trkpt lat="46.64385" lon="6.0424">
        <ele>841.29</ele>
        <time>2018-03-09T08:40:00Z</time>
      </trkpt>
      <trkpt lat="46.64381" lon="6.0422">
        <ele>839.37</ele>
        <time>2018-03-09T08:40:13Z</time>
      </trkpt>
      <trkpt lat="46.64373" lon="6.04197">
        <ele>838.41</ele>
        <time>2018-03-09T08:40:25Z</time>
      </trkpt>
      <trkpt lat="46.64359" lon="6.04165">
        <ele>837.45</ele>
        <time>2018-03-09T08:40:37Z</time>
      </trkpt>
      <trkpt lat="46.64355" lon="6.04139">
        <ele>836</ele>
        <time>2018-03-09T08:40:51Z</time>
      </trkpt>
      <trkpt lat="46.64359" lon="6.04122">
        <ele>835.04</ele>
        <time>2018-03-09T08:41:03Z</time>
      </trkpt>
      <trkpt lat="46.64358" lon="6.04117">
        <ele>834.56</ele>
        <time>2018-03-09T08:41:06Z</time>
      </trkpt>
      <trkpt lat="46.64352" lon="6.04097">
        <ele>834.08</ele>
        <time>2018-03-09T08:41:15Z</time>
      </trkpt>
      <trkpt lat="46.64345" lon="6.0407">
        <ele>832.64</ele>
        <time>2018-03-09T08:41:27Z</time>
      </trkpt>
      <trkpt lat="46.6434" lon="6.0406">
        <ele>832.16</ele>
        <time>2018-03-09T08:41:33Z</time>
      </trkpt>
      <trkpt lat="46.64336" lon="6.04055">
        <ele>832.16</ele>
        <time>2018-03-09T08:41:38Z</time>
      </trkpt>
      <trkpt lat="46.64337" lon="6.04044">
        <ele>831.68</ele>
        <time>2018-03-09T08:41:41Z</time>
      </trkpt>
      <trkpt lat="46.64331" lon="6.04016">
        <ele>830.24</ele>
        <time>2018-03-09T08:41:56Z</time>
      </trkpt>
      <trkpt lat="46.64327" lon="6.03998">
        <ele>829.76</ele>
        <time>2018-03-09T08:42:04Z</time>
      </trkpt>
      <trkpt lat="46.6432" lon="6.03975">
        <ele>828.31</ele>
        <time>2018-03-09T08:42:15Z</time>
      </trkpt>
      <trkpt lat="46.64312" lon="6.03951">
        <ele>827.83</ele>
        <time>2018-03-09T08:42:25Z</time>
      </trkpt>
      <trkpt lat="46.64305" lon="6.03924">
        <ele>827.35</ele>
        <time>2018-03-09T08:42:36Z</time>
      </trkpt>
      <trkpt lat="46.64303" lon="6.0392">
        <ele>827.83</ele>
        <time>2018-03-09T08:42:39Z</time>
      </trkpt>
      <trkpt lat="46.64299" lon="6.03919">
        <ele>826.87</ele>
        <time>2018-03-09T08:42:43Z</time>
      </trkpt>
      <trkpt lat="46.64298" lon="6.03917">
        <ele>826.87</ele>
        <time>2018-03-09T08:42:44Z</time>
      </trkpt>
      <trkpt lat="46.64293" lon="6.03904">
        <ele>826.39</ele>
        <time>2018-03-09T08:42:50Z</time>
      </trkpt>
      <trkpt lat="46.64276" lon="6.03884">
        <ele>825.91</ele>
        <time>2018-03-09T08:43:02Z</time>
      </trkpt>
      <trkpt lat="46.64265" lon="6.03862">
        <ele>824.95</ele>
        <time>2018-03-09T08:43:13Z</time>
      </trkpt>
      <trkpt lat="46.64263" lon="6.03856">
        <ele>824.95</ele>
        <time>2018-03-09T08:43:14Z</time>
      </trkpt>
      <trkpt lat="46.64248" lon="6.0384">
        <ele>823.51</ele>
        <time>2018-03-09T08:43:27Z</time>
      </trkpt>
      <trkpt lat="46.64231" lon="6.03828">
        <ele>823.51</ele>
        <time>2018-03-09T08:43:39Z</time>
      </trkpt>
      <trkpt lat="46.64211" lon="6.03829">
        <ele>822.55</ele>
        <time>2018-03-09T08:43:50Z</time>
      </trkpt>
      <trkpt lat="46.64195" lon="6.03839">
        <ele>822.55</ele>
        <time>2018-03-09T08:44:03Z</time>
      </trkpt>
      <trkpt lat="46.6419" lon="6.03843">
        <ele>821.58</ele>
        <time>2018-03-09T08:44:13Z</time>
      </trkpt>
      <trkpt lat="46.64182" lon="6.03851">
        <ele>821.58</ele>
        <time>2018-03-09T08:44:25Z</time>
      </trkpt>
      <trkpt lat="46.64178" lon="6.03852">
        <ele>822.06</ele>
        <time>2018-03-09T08:44:27Z</time>
      </trkpt>
      <trkpt lat="46.64155" lon="6.03853">
        <ele>821.1</ele>
        <time>2018-03-09T08:44:40Z</time>
      </trkpt>
      <trkpt lat="46.64142" lon="6.03847">
        <ele>820.14</ele>
        <time>2018-03-09T08:44:50Z</time>
      </trkpt>
      <trkpt lat="46.6413" lon="6.0384">
        <ele>819.18</ele>
        <time>2018-03-09T08:45:04Z</time>
      </trkpt>
      <trkpt lat="46.64111" lon="6.03833">
        <ele>817.74</ele>
        <time>2018-03-09T08:45:16Z</time>
      </trkpt>
      <trkpt lat="46.64104" lon="6.0381">
        <ele>816.3</ele>
        <time>2018-03-09T08:45:29Z</time>
      </trkpt>
      <trkpt lat="46.64102" lon="6.03806">
        <ele>816.3</ele>
        <time>2018-03-09T08:45:31Z</time>
      </trkpt>
      <trkpt lat="46.641" lon="6.03801">
        <ele>815.82</ele>
        <time>2018-03-09T08:45:34Z</time>
      </trkpt>
      <trkpt lat="46.64098" lon="6.03795">
        <ele>815.82</ele>
        <time>2018-03-09T08:45:37Z</time>
      </trkpt>
      <trkpt lat="46.64087" lon="6.0375">
        <ele>814.37</ele>
        <time>2018-03-09T08:45:52Z</time>
      </trkpt>
      <trkpt lat="46.64087" lon="6.03746">
        <ele>814.85</ele>
        <time>2018-03-09T08:45:54Z</time>
      </trkpt>
      <trkpt lat="46.6409" lon="6.03739">
        <ele>812.93</ele>
        <time>2018-03-09T08:46:05Z</time>
      </trkpt>
      <trkpt lat="46.64089" lon="6.03736">
        <ele>812.93</ele>
        <time>2018-03-09T08:46:08Z</time>
      </trkpt>
      <trkpt lat="46.64072" lon="6.03709">
        <ele>810.53</ele>
        <time>2018-03-09T08:46:20Z</time>
      </trkpt>
      <trkpt lat="46.64062" lon="6.03694">
        <ele>809.57</ele>
        <time>2018-03-09T08:46:31Z</time>
      </trkpt>
      <trkpt lat="46.64051" lon="6.03673">
        <ele>807.16</ele>
        <time>2018-03-09T08:46:43Z</time>
      </trkpt>
      <trkpt lat="46.64047" lon="6.03667">
        <ele>806.68</ele>
        <time>2018-03-09T08:46:48Z</time>
      </trkpt>
      <trkpt lat="46.64035" lon="6.03656">
        <ele>804.28</ele>
        <time>2018-03-09T08:46:59Z</time>
      </trkpt>
      <trkpt lat="46.64033" lon="6.03653">
        <ele>803.8</ele>
        <time>2018-03-09T08:47:01Z</time>
      </trkpt>
      <trkpt lat="46.64029" lon="6.03649">
        <ele>802.84</ele>
        <time>2018-03-09T08:47:05Z</time>
      </trkpt>
      <trkpt lat="46.64024" lon="6.03646">
        <ele>802.36</ele>
        <time>2018-03-09T08:47:09Z</time>
      </trkpt>
      <trkpt lat="46.64006" lon="6.03626">
        <ele>800.92</ele>
        <time>2018-03-09T08:47:18Z</time>
      </trkpt>
      <trkpt lat="46.63998" lon="6.03617">
        <ele>799.95</ele>
        <time>2018-03-09T08:47:23Z</time>
      </trkpt>
      <trkpt lat="46.6398" lon="6.03596">
        <ele>797.07</ele>
        <time>2018-03-09T08:47:36Z</time>
      </trkpt>
      <trkpt lat="46.63975" lon="6.0359">
        <ele>797.07</ele>
        <time>2018-03-09T08:47:40Z</time>
      </trkpt>
      <trkpt lat="46.63963" lon="6.03566">
        <ele>795.15</ele>
        <time>2018-03-09T08:47:52Z</time>
      </trkpt>
      <trkpt lat="46.63955" lon="6.03561">
        <ele>793.22</ele>
        <time>2018-03-09T08:48:04Z</time>
      </trkpt>
      <trkpt lat="46.63936" lon="6.0356">
        <ele>792.74</ele>
        <time>2018-03-09T08:48:18Z</time>
      </trkpt>
      <trkpt lat="46.63917" lon="6.03557">
        <ele>790.82</ele>
        <time>2018-03-09T08:48:29Z</time>
      </trkpt>
      <trkpt lat="46.63898" lon="6.03558">
        <ele>789.38</ele>
        <time>2018-03-09T08:48:44Z</time>
      </trkpt>
      <trkpt lat="46.63876" lon="6.03561">
        <ele>787.94</ele>
        <time>2018-03-09T08:48:57Z</time>
      </trkpt>
      <trkpt lat="46.63853" lon="6.03562">
        <ele>786.02</ele>
        <time>2018-03-09T08:49:11Z</time>
      </trkpt>
      <trkpt lat="46.63837" lon="6.0354">
        <ele>783.61</ele>
        <time>2018-03-09T08:49:25Z</time>
      </trkpt>
      <trkpt lat="46.63831" lon="6.03505">
        <ele>783.61</ele>
        <time>2018-03-09T08:49:40Z</time>
      </trkpt>
      <trkpt lat="46.63824" lon="6.03498">
        <ele>782.17</ele>
        <time>2018-03-09T08:49:46Z</time>
      </trkpt>
      <trkpt lat="46.6382" lon="6.03492">
        <ele>782.17</ele>
        <time>2018-03-09T08:49:49Z</time>
      </trkpt>
      <trkpt lat="46.63817" lon="6.03483">
        <ele>782.17</ele>
        <time>2018-03-09T08:49:53Z</time>
      </trkpt>
      <trkpt lat="46.63803" lon="6.0346">
        <ele>780.73</ele>
        <time>2018-03-09T08:50:08Z</time>
      </trkpt>
      <trkpt lat="46.6379" lon="6.03436">
        <ele>780.73</ele>
        <time>2018-03-09T08:50:21Z</time>
      </trkpt>
      <trkpt lat="46.63775" lon="6.03418">
        <ele>780.73</ele>
        <time>2018-03-09T08:50:34Z</time>
      </trkpt>
      <trkpt lat="46.6377" lon="6.03413">
        <ele>780.25</ele>
        <time>2018-03-09T08:50:38Z</time>
      </trkpt>
      <trkpt lat="46.63757" lon="6.03395">
        <ele>779.77</ele>
        <time>2018-03-09T08:50:50Z</time>
      </trkpt>
      <trkpt lat="46.63745" lon="6.03373">
        <ele>779.77</ele>
        <time>2018-03-09T08:51:05Z</time>
      </trkpt>
      <trkpt lat="46.63741" lon="6.03361">
        <ele>780.25</ele>
        <time>2018-03-09T08:51:14Z</time>
      </trkpt>
      <trkpt lat="46.6374" lon="6.03355">
        <ele>780.25</ele>
        <time>2018-03-09T08:51:20Z</time>
      </trkpt>
      <trkpt lat="46.63743" lon="6.03343">
        <ele>780.25</ele>
        <time>2018-03-09T08:51:36Z</time>
      </trkpt>
      <trkpt lat="46.63744" lon="6.03341">
        <ele>779.77</ele>
        <time>2018-03-09T08:51:39Z</time>
      </trkpt>
      <trkpt lat="46.63739" lon="6.03316">
        <ele>779.29</ele>
        <time>2018-03-09T08:51:53Z</time>
      </trkpt>
      <trkpt lat="46.6374" lon="6.03296">
        <ele>779.29</ele>
        <time>2018-03-09T08:52:00Z</time>
      </trkpt>
      <trkpt lat="46.63736" lon="6.03271">
        <ele>779.77</ele>
        <time>2018-03-09T08:52:12Z</time>
      </trkpt>
      <trkpt lat="46.63731" lon="6.03246">
        <ele>780.25</ele>
        <time>2018-03-09T08:52:27Z</time>
      </trkpt>
      <trkpt lat="46.63732" lon="6.03225">
        <ele>781.21</ele>
        <time>2018-03-09T08:52:39Z</time>
      </trkpt>
      <trkpt lat="46.63722" lon="6.03204">
        <ele>782.65</ele>
        <time>2018-03-09T08:52:51Z</time>
      </trkpt>
      <trkpt lat="46.63722" lon="6.03201">
        <ele>782.65</ele>
        <time>2018-03-09T08:52:53Z</time>
      </trkpt>
      <trkpt lat="46.6373" lon="6.03186">
        <ele>782.17</ele>
        <time>2018-03-09T08:53:01Z</time>
      </trkpt>
      <trkpt lat="46.63728" lon="6.03163">
        <ele>783.61</ele>
        <time>2018-03-09T08:53:14Z</time>
      </trkpt>
      <trkpt lat="46.63722" lon="6.03129">
        <ele>783.13</ele>
        <time>2018-03-09T08:53:28Z</time>
      </trkpt>
      <trkpt lat="46.63713" lon="6.03113">
        <ele>782.17</ele>
        <time>2018-03-09T08:53:40Z</time>
      </trkpt>
      <trkpt lat="46.63707" lon="6.03092">
        <ele>782.17</ele>
        <time>2018-03-09T08:53:52Z</time>
      </trkpt>
      <trkpt lat="46.63703" lon="6.03087">
        <ele>781.69</ele>
        <time>2018-03-09T08:53:57Z</time>
      </trkpt>
      <trkpt lat="46.63694" lon="6.03075">
        <ele>781.21</ele>
        <time>2018-03-09T08:54:05Z</time>
      </trkpt>
      <trkpt lat="46.63692" lon="6.03062">
        <ele>781.21</ele>
        <time>2018-03-09T08:54:12Z</time>
      </trkpt>
      <trkpt lat="46.63698" lon="6.03042">
        <ele>781.69</ele>
        <time>2018-03-09T08:54:24Z</time>
      </trkpt>
      <trkpt lat="46.63703" lon="6.03039">
        <ele>781.69</ele>
        <time>2018-03-09T08:54:33Z</time>
      </trkpt>
      <trkpt lat="46.63713" lon="6.03036">
        <ele>782.17</ele>
        <time>2018-03-09T08:54:45Z</time>
      </trkpt>
      <trkpt lat="46.6374" lon="6.03032">
        <ele>782.65</ele>
        <time>2018-03-09T08:54:55Z</time>
      </trkpt>
      <trkpt lat="46.63754" lon="6.03036">
        <ele>783.13</ele>
        <time>2018-03-09T08:55:05Z</time>
      </trkpt>
      <trkpt lat="46.63765" lon="6.03037">
        <ele>783.61</ele>
        <time>2018-03-09T08:55:17Z</time>
      </trkpt>
      <trkpt lat="46.63769" lon="6.03037">
        <ele>783.61</ele>
        <time>2018-03-09T08:55:19Z</time>
      </trkpt>
      <trkpt lat="46.63779" lon="6.03034">
        <ele>784.09</ele>
        <time>2018-03-09T08:55:25Z</time>
      </trkpt>
      <trkpt lat="46.63798" lon="6.03021">
        <ele>785.05</ele>
        <time>2018-03-09T08:55:38Z</time>
      </trkpt>
      <trkpt lat="46.63807" lon="6.03007">
        <ele>786.02</ele>
        <time>2018-03-09T08:55:50Z</time>
      </trkpt>
      <trkpt lat="46.6381" lon="6.02989">
        <ele>786.5</ele>
        <time>2018-03-09T08:56:02Z</time>
      </trkpt>
      <trkpt lat="46.63816" lon="6.02979">
        <ele>786.5</ele>
        <time>2018-03-09T08:56:09Z</time>
      </trkpt>
      <trkpt lat="46.63819" lon="6.02972">
        <ele>786.98</ele>
        <time>2018-03-09T08:56:14Z</time>
      </trkpt>
      <trkpt lat="46.63822" lon="6.02966">
        <ele>786.98</ele>
        <time>2018-03-09T08:56:18Z</time>
      </trkpt>
      <trkpt lat="46.63827" lon="6.02959">
        <ele>786.98</ele>
        <time>2018-03-09T08:56:23Z</time>
      </trkpt>
      <trkpt lat="46.63832" lon="6.02941">
        <ele>787.46</ele>
        <time>2018-03-09T08:56:32Z</time>
      </trkpt>
      <trkpt lat="46.63843" lon="6.02911">
        <ele>787.46</ele>
        <time>2018-03-09T08:56:47Z</time>
      </trkpt>
      <trkpt lat="46.63844" lon="6.02897">
        <ele>788.42</ele>
        <time>2018-03-09T08:56:56Z</time>
      </trkpt>
      <trkpt lat="46.6384" lon="6.02891">
        <ele>788.9</ele>
        <time>2018-03-09T08:57:00Z</time>
      </trkpt>
      <trkpt lat="46.63827" lon="6.02893">
        <ele>790.34</ele>
        <time>2018-03-09T08:57:10Z</time>
      </trkpt>
      <trkpt lat="46.63823" lon="6.02885">
        <ele>786.02</ele>
        <time>2018-03-09T08:57:21Z</time>
      </trkpt>
      <trkpt lat="46.63823" lon="6.02885">
        <ele>791.3</ele>
        <time>2018-03-09T08:57:22Z</time>
      </trkpt>
      <trkpt lat="46.63823" lon="6.02885">
        <ele>786.5</ele>
        <time>2018-03-09T08:57:34Z</time>
      </trkpt>
      <trkpt lat="46.63823" lon="6.02885">
        <ele>791.78</ele>
        <time>2018-03-09T08:57:35Z</time>
      </trkpt>
      <trkpt lat="46.63823" lon="6.02885">
        <ele>786.02</ele>
        <time>2018-03-09T08:57:36Z</time>
      </trkpt>
      <trkpt lat="46.63823" lon="6.02885">
        <ele>791.78</ele>
        <time>2018-03-09T08:57:37Z</time>
      </trkpt>
      <trkpt lat="46.63823" lon="6.02885">
        <ele>780.73</ele>
        <time>2018-03-09T08:57:39Z</time>
      </trkpt>
      <trkpt lat="46.63824" lon="6.02885">
        <ele>792.26</ele>
        <time>2018-03-09T08:57:40Z</time>
      </trkpt>
      <trkpt lat="46.63823" lon="6.02885">
        <ele>780.73</ele>
        <time>2018-03-09T08:57:50Z</time>
      </trkpt>
      <trkpt lat="46.63823" lon="6.02885">
        <ele>792.26</ele>
        <time>2018-03-09T08:57:51Z</time>
      </trkpt>
      <trkpt lat="46.63823" lon="6.02886">
        <ele>785.05</ele>
        <time>2018-03-09T08:58:01Z</time>
      </trkpt>
      <trkpt lat="46.63823" lon="6.02886">
        <ele>791.78</ele>
        <time>2018-03-09T08:58:02Z</time>
      </trkpt>
      <trkpt lat="46.63824" lon="6.02883">
        <ele>792.26</ele>
        <time>2018-03-09T08:58:18Z</time>
      </trkpt>
      <trkpt lat="46.63822" lon="6.02881">
        <ele>793.71</ele>
        <time>2018-03-09T08:58:22Z</time>
      </trkpt>
      <trkpt lat="46.63807" lon="6.0287">
        <ele>793.22</ele>
        <time>2018-03-09T08:58:41Z</time>
      </trkpt>
      <trkpt lat="46.63809" lon="6.02863">
        <ele>793.22</ele>
        <time>2018-03-09T08:59:00Z</time>
      </trkpt>
      <trkpt lat="46.63815" lon="6.02868">
        <ele>794.19</ele>
        <time>2018-03-09T08:59:15Z</time>
      </trkpt>
      <trkpt lat="46.63794" lon="6.02867">
        <ele>794.19</ele>
        <time>2018-03-09T08:59:37Z</time>
      </trkpt>
      <trkpt lat="46.63794" lon="6.02872">
        <ele>793.71</ele>
        <time>2018-03-09T08:59:44Z</time>
      </trkpt>
      <trkpt lat="46.63784" lon="6.02886">
        <ele>794.67</ele>
        <time>2018-03-09T09:00:07Z</time>
      </trkpt>
      <trkpt lat="46.63793" lon="6.02889">
        <ele>793.22</ele>
        <time>2018-03-09T09:00:22Z</time>
      </trkpt>
      <trkpt lat="46.63799" lon="6.0289">
        <ele>793.71</ele>
        <time>2018-03-09T09:00:48Z</time>
      </trkpt>
      <trkpt lat="46.63828" lon="6.02879">
        <ele>795.15</ele>
        <time>2018-03-09T09:02:21Z</time>
      </trkpt>
      <trkpt lat="46.6383" lon="6.02877">
        <ele>797.55</ele>
        <time>2018-03-09T09:02:38Z</time>
      </trkpt>
      <trkpt lat="46.6381" lon="6.02879">
        <ele>796.59</ele>
        <time>2018-03-09T09:02:55Z</time>
      </trkpt>
      <trkpt lat="46.63803" lon="6.02879">
        <ele>796.59</ele>
        <time>2018-03-09T09:03:23Z</time>
      </trkpt>
      <trkpt lat="46.63798" lon="6.02877">
        <ele>796.59</ele>
        <time>2018-03-09T09:03:52Z</time>
      </trkpt>
      <trkpt lat="46.638" lon="6.02876">
        <ele>797.07</ele>
        <time>2018-03-09T09:04:22Z</time>
      </trkpt>
      <trkpt lat="46.63802" lon="6.02877">
        <ele>797.55</ele>
        <time>2018-03-09T09:04:55Z</time>
      </trkpt>
      <trkpt lat="46.63804" lon="6.02878">
        <ele>798.51</ele>
        <time>2018-03-09T09:05:26Z</time>
      </trkpt>
      <trkpt lat="46.63805" lon="6.02879">
        <ele>798.99</ele>
        <time>2018-03-09T09:05:57Z</time>
      </trkpt>
      <trkpt lat="46.63806" lon="6.02879">
        <ele>798.99</ele>
        <time>2018-03-09T09:06:27Z</time>
      </trkpt>
      <trkpt lat="46.63806" lon="6.0288">
        <ele>798.51</ele>
        <time>2018-03-09T09:06:59Z</time>
      </trkpt>
      <trkpt lat="46.63807" lon="6.0288">
        <ele>798.51</ele>
        <time>2018-03-09T09:07:29Z</time>
      </trkpt>
      <trkpt lat="46.63807" lon="6.0288">
        <ele>798.99</ele>
        <time>2018-03-09T09:08:00Z</time>
      </trkpt>
      <trkpt lat="46.63807" lon="6.0288">
        <ele>799.47</ele>
        <time>2018-03-09T09:08:34Z</time>
      </trkpt>
      <trkpt lat="46.63807" lon="6.0288">
        <ele>799.47</ele>
        <time>2018-03-09T09:09:03Z</time>
      </trkpt>
      <trkpt lat="46.63807" lon="6.0288">
        <ele>799.95</ele>
        <time>2018-03-09T09:09:30Z</time>
      </trkpt>
      <trkpt lat="46.63807" lon="6.0288">
        <ele>800.44</ele>
        <time>2018-03-09T09:09:57Z</time>
      </trkpt>
      <trkpt lat="46.63802" lon="6.02875">
        <ele>800.44</ele>
        <time>2018-03-09T09:10:22Z</time>
      </trkpt>
      <trkpt lat="46.63803" lon="6.02876">
        <ele>800.44</ele>
        <time>2018-03-09T09:10:51Z</time>
      </trkpt>
      <trkpt lat="46.63805" lon="6.02877">
        <ele>800.92</ele>
        <time>2018-03-09T09:11:22Z</time>
      </trkpt>
      <trkpt lat="46.63805" lon="6.02878">
        <ele>800.92</ele>
        <time>2018-03-09T09:11:51Z</time>
      </trkpt>
      <trkpt lat="46.63806" lon="6.02879">
        <ele>800.92</ele>
        <time>2018-03-09T09:12:19Z</time>
      </trkpt>
      <trkpt lat="46.63807" lon="6.0288">
        <ele>801.4</ele>
        <time>2018-03-09T09:12:49Z</time>
      </trkpt>
      <trkpt lat="46.63808" lon="6.0288">
        <ele>801.88</ele>
        <time>2018-03-09T09:13:27Z</time>
      </trkpt>
      <trkpt lat="46.63809" lon="6.02881">
        <ele>802.84</ele>
        <time>2018-03-09T09:13:59Z</time>
      </trkpt>
      <trkpt lat="46.63809" lon="6.02881">
        <ele>802.36</ele>
        <time>2018-03-09T09:14:29Z</time>
      </trkpt>
      <trkpt lat="46.63809" lon="6.02882">
        <ele>802.84</ele>
        <time>2018-03-09T09:14:59Z</time>
      </trkpt>
      <trkpt lat="46.63806" lon="6.02882">
        <ele>802.84</ele>
        <time>2018-03-09T09:15:26Z</time>
      </trkpt>
      <trkpt lat="46.63809" lon="6.0288">
        <ele>802.84</ele>
        <time>2018-03-09T09:15:53Z</time>
      </trkpt>
      <trkpt lat="46.63805" lon="6.0288">
        <ele>803.32</ele>
        <time>2018-03-09T09:16:19Z</time>
      </trkpt>
      <trkpt lat="46.63806" lon="6.02881">
        <ele>803.32</ele>
        <time>2018-03-09T09:16:43Z</time>
      </trkpt>
      <trkpt lat="46.63805" lon="6.02881">
        <ele>803.32</ele>
        <time>2018-03-09T09:17:16Z</time>
      </trkpt>
      <trkpt lat="46.63807" lon="6.02882">
        <ele>803.8</ele>
        <time>2018-03-09T09:17:47Z</time>
      </trkpt>
      <trkpt lat="46.63806" lon="6.02882">
        <ele>804.28</ele>
        <time>2018-03-09T09:18:19Z</time>
      </trkpt>
      <trkpt lat="46.63808" lon="6.02882">
        <ele>804.76</ele>
        <time>2018-03-09T09:18:54Z</time>
      </trkpt>
      <trkpt lat="46.63808" lon="6.02881">
        <ele>804.76</ele>
        <time>2018-03-09T09:19:26Z</time>
      </trkpt>
      <trkpt lat="46.63809" lon="6.02881">
        <ele>804.76</ele>
        <time>2018-03-09T09:20:00Z</time>
      </trkpt>
      <trkpt lat="46.6381" lon="6.02881">
        <ele>805.24</ele>
        <time>2018-03-09T09:20:30Z</time>
      </trkpt>
      <trkpt lat="46.6381" lon="6.0288">
        <ele>805.24</ele>
        <time>2018-03-09T09:21:04Z</time>
      </trkpt>
      <trkpt lat="46.6381" lon="6.0288">
        <ele>805.24</ele>
        <time>2018-03-09T09:21:36Z</time>
      </trkpt>
      <trkpt lat="46.6381" lon="6.02881">
        <ele>805.24</ele>
        <time>2018-03-09T09:22:11Z</time>
      </trkpt>
      <trkpt lat="46.6381" lon="6.0288">
        <ele>806.2</ele>
        <time>2018-03-09T09:22:45Z</time>
      </trkpt>
      <trkpt lat="46.6381" lon="6.0288">
        <ele>806.2</ele>
        <time>2018-03-09T09:23:19Z</time>
      </trkpt>
      <trkpt lat="46.63811" lon="6.0288">
        <ele>806.2</ele>
        <time>2018-03-09T09:23:49Z</time>
      </trkpt>
      <trkpt lat="46.63811" lon="6.0288">
        <ele>806.68</ele>
        <time>2018-03-09T09:24:15Z</time>
      </trkpt>
      <trkpt lat="46.6381" lon="6.0288">
        <ele>806.68</ele>
        <time>2018-03-09T09:24:49Z</time>
      </trkpt>
      <trkpt lat="46.6381" lon="6.0288">
        <ele>806.68</ele>
        <time>2018-03-09T09:25:23Z</time>
      </trkpt>
      <trkpt lat="46.6381" lon="6.0288">
        <ele>807.16</ele>
        <time>2018-03-09T09:25:56Z</time>
      </trkpt>
      <trkpt lat="46.6381" lon="6.0288">
        <ele>807.64</ele>
        <time>2018-03-09T09:26:29Z</time>
      </trkpt>
      <trkpt lat="46.63811" lon="6.02881">
        <ele>807.16</ele>
        <time>2018-03-09T09:26:51Z</time>
      </trkpt>
      <trkpt lat="46.6381" lon="6.02876">
        <ele>807.16</ele>
        <time>2018-03-09T09:27:14Z</time>
      </trkpt>
      <trkpt lat="46.63811" lon="6.02877">
        <ele>808.13</ele>
        <time>2018-03-09T09:27:38Z</time>
      </trkpt>
      <trkpt lat="46.63808" lon="6.02873">
        <ele>807.64</ele>
        <time>2018-03-09T09:28:01Z</time>
      </trkpt>
      <trkpt lat="46.63807" lon="6.02873">
        <ele>808.13</ele>
        <time>2018-03-09T09:28:25Z</time>
      </trkpt>
      <trkpt lat="46.63808" lon="6.02875">
        <ele>808.13</ele>
        <time>2018-03-09T09:28:54Z</time>
      </trkpt>
      <trkpt lat="46.6381" lon="6.02877">
        <ele>807.64</ele>
        <time>2018-03-09T09:29:19Z</time>
      </trkpt>
      <trkpt lat="46.63809" lon="6.02877">
        <ele>809.09</ele>
        <time>2018-03-09T09:29:48Z</time>
      </trkpt>
      <trkpt lat="46.63809" lon="6.02877">
        <ele>808.61</ele>
        <time>2018-03-09T09:30:15Z</time>
      </trkpt>
      <trkpt lat="46.6381" lon="6.02878">
        <ele>808.61</ele>
        <time>2018-03-09T09:30:43Z</time>
      </trkpt>
      <trkpt lat="46.6381" lon="6.02878">
        <ele>808.13</ele>
        <time>2018-03-09T09:31:12Z</time>
      </trkpt>
      <trkpt lat="46.63811" lon="6.02879">
        <ele>808.61</ele>
        <time>2018-03-09T09:31:44Z</time>
      </trkpt>
      <trkpt lat="46.63812" lon="6.02879">
        <ele>808.61</ele>
        <time>2018-03-09T09:32:15Z</time>
      </trkpt>
      <trkpt lat="46.63813" lon="6.02879">
        <ele>808.61</ele>
        <time>2018-03-09T09:32:48Z</time>
      </trkpt>
      <trkpt lat="46.63814" lon="6.0288">
        <ele>809.09</ele>
        <time>2018-03-09T09:33:28Z</time>
      </trkpt>
      <trkpt lat="46.63814" lon="6.0288">
        <ele>809.57</ele>
        <time>2018-03-09T09:34:05Z</time>
      </trkpt>
      <trkpt lat="46.63814" lon="6.02882">
        <ele>808.61</ele>
        <time>2018-03-09T09:34:35Z</time>
      </trkpt>
      <trkpt lat="46.63814" lon="6.02883">
        <ele>809.57</ele>
        <time>2018-03-09T09:35:02Z</time>
      </trkpt>
      <trkpt lat="46.63808" lon="6.02887">
        <ele>809.09</ele>
        <time>2018-03-09T09:35:25Z</time>
      </trkpt>
      <trkpt lat="46.63801" lon="6.02891">
        <ele>809.09</ele>
        <time>2018-03-09T09:35:44Z</time>
      </trkpt>
      <trkpt lat="46.63802" lon="6.02891">
        <ele>809.09</ele>
        <time>2018-03-09T09:36:05Z</time>
      </trkpt>
      <trkpt lat="46.63806" lon="6.0289">
        <ele>809.57</ele>
        <time>2018-03-09T09:36:27Z</time>
      </trkpt>
      <trkpt lat="46.63814" lon="6.02883">
        <ele>809.57</ele>
        <time>2018-03-09T09:36:50Z</time>
      </trkpt>
      <trkpt lat="46.63813" lon="6.02883">
        <ele>809.57</ele>
        <time>2018-03-09T09:37:14Z</time>
      </trkpt>
      <trkpt lat="46.63812" lon="6.02884">
        <ele>810.05</ele>
        <time>2018-03-09T09:37:39Z</time>
      </trkpt>
      <trkpt lat="46.63812" lon="6.02883">
        <ele>810.05</ele>
        <time>2018-03-09T09:38:05Z</time>
      </trkpt>
      <trkpt lat="46.63812" lon="6.02882">
        <ele>810.53</ele>
        <time>2018-03-09T09:38:32Z</time>
      </trkpt>
      <trkpt lat="46.6381" lon="6.0288">
        <ele>809.57</ele>
        <time>2018-03-09T09:39:03Z</time>
      </trkpt>
      <trkpt lat="46.63812" lon="6.0288">
        <ele>810.53</ele>
        <time>2018-03-09T09:39:29Z</time>
      </trkpt>
      <trkpt lat="46.63812" lon="6.0288">
        <ele>810.05</ele>
        <time>2018-03-09T09:39:56Z</time>
      </trkpt>
      <trkpt lat="46.63812" lon="6.02878">
        <ele>810.05</ele>
        <time>2018-03-09T09:40:27Z</time>
      </trkpt>
      <trkpt lat="46.63812" lon="6.02878">
        <ele>811.01</ele>
        <time>2018-03-09T09:41:00Z</time>
      </trkpt>
      <trkpt lat="46.63812" lon="6.02878">
        <ele>810.53</ele>
        <time>2018-03-09T09:41:33Z</time>
      </trkpt>
      <trkpt lat="46.63812" lon="6.02879">
        <ele>811.01</ele>
        <time>2018-03-09T09:42:06Z</time>
      </trkpt>
      <trkpt lat="46.63812" lon="6.02878">
        <ele>811.01</ele>
        <time>2018-03-09T09:42:38Z</time>
      </trkpt>
      <trkpt lat="46.63812" lon="6.02878">
        <ele>811.49</ele>
        <time>2018-03-09T09:43:08Z</time>
      </trkpt>
      <trkpt lat="46.63811" lon="6.02879">
        <ele>811.01</ele>
        <time>2018-03-09T09:43:41Z</time>
      </trkpt>
      <trkpt lat="46.63811" lon="6.02879">
        <ele>811.01</ele>
        <time>2018-03-09T09:44:13Z</time>
      </trkpt>
      <trkpt lat="46.63811" lon="6.02879">
        <ele>811.49</ele>
        <time>2018-03-09T09:44:44Z</time>
      </trkpt>
      <trkpt lat="46.63811" lon="6.02879">
        <ele>811.01</ele>
        <time>2018-03-09T09:45:16Z</time>
      </trkpt>
      <trkpt lat="46.63811" lon="6.02879">
        <ele>811.49</ele>
        <time>2018-03-09T09:45:49Z</time>
      </trkpt>
      <trkpt lat="46.63811" lon="6.02879">
        <ele>811.49</ele>
        <time>2018-03-09T09:46:17Z</time>
      </trkpt>
      <trkpt lat="46.63811" lon="6.02879">
        <ele>811.01</ele>
        <time>2018-03-09T09:46:45Z</time>
      </trkpt>
      <trkpt lat="46.63815" lon="6.02881">
        <ele>811.01</ele>
        <time>2018-03-09T09:47:09Z</time>
      </trkpt>
      <trkpt lat="46.63817" lon="6.02883">
        <ele>811.97</ele>
        <time>2018-03-09T09:47:35Z</time>
      </trkpt>
      <trkpt lat="46.63817" lon="6.02882">
        <ele>811.49</ele>
        <time>2018-03-09T09:48:07Z</time>
      </trkpt>
      <trkpt lat="46.63817" lon="6.02882">
        <ele>811.49</ele>
        <time>2018-03-09T09:48:35Z</time>
      </trkpt>
      <trkpt lat="46.63816" lon="6.02882">
        <ele>811.49</ele>
        <time>2018-03-09T09:49:06Z</time>
      </trkpt>
      <trkpt lat="46.6382" lon="6.02882">
        <ele>811.49</ele>
        <time>2018-03-09T09:49:32Z</time>
      </trkpt>
      <trkpt lat="46.6382" lon="6.02882">
        <ele>811.49</ele>
        <time>2018-03-09T09:49:58Z</time>
      </trkpt>
      <trkpt lat="46.63815" lon="6.02883">
        <ele>811.97</ele>
        <time>2018-03-09T09:50:31Z</time>
      </trkpt>
      <trkpt lat="46.63816" lon="6.02883">
        <ele>811.49</ele>
        <time>2018-03-09T09:51:01Z</time>
      </trkpt>
      <trkpt lat="46.63815" lon="6.02883">
        <ele>811.49</ele>
        <time>2018-03-09T09:51:28Z</time>
      </trkpt>
      <trkpt lat="46.63814" lon="6.02883">
        <ele>811.97</ele>
        <time>2018-03-09T09:51:52Z</time>
      </trkpt>
      <trkpt lat="46.63813" lon="6.02882">
        <ele>811.97</ele>
        <time>2018-03-09T09:52:21Z</time>
      </trkpt>
      <trkpt lat="46.63813" lon="6.02883">
        <ele>811.97</ele>
        <time>2018-03-09T09:52:41Z</time>
      </trkpt>
      <trkpt lat="46.63813" lon="6.0288">
        <ele>812.45</ele>
        <time>2018-03-09T09:53:14Z</time>
      </trkpt>
      <trkpt lat="46.63813" lon="6.0288">
        <ele>811.97</ele>
        <time>2018-03-09T09:53:46Z</time>
      </trkpt>
      <trkpt lat="46.63812" lon="6.0288">
        <ele>811.97</ele>
        <time>2018-03-09T09:54:23Z</time>
      </trkpt>
      <trkpt lat="46.63812" lon="6.02881">
        <ele>811.97</ele>
        <time>2018-03-09T09:54:54Z</time>
      </trkpt>
      <trkpt lat="46.63811" lon="6.02882">
        <ele>811.97</ele>
        <time>2018-03-09T09:55:30Z</time>
      </trkpt>
      <trkpt lat="46.63811" lon="6.02883">
        <ele>812.45</ele>
        <time>2018-03-09T09:56:03Z</time>
      </trkpt>
      <trkpt lat="46.6381" lon="6.02883">
        <ele>812.93</ele>
        <time>2018-03-09T09:56:34Z</time>
      </trkpt>
      <trkpt lat="46.6381" lon="6.02883">
        <ele>813.41</ele>
        <time>2018-03-09T09:57:04Z</time>
      </trkpt>
      <trkpt lat="46.6381" lon="6.02884">
        <ele>812.93</ele>
        <time>2018-03-09T09:57:34Z</time>
      </trkpt>
      <trkpt lat="46.63808" lon="6.02884">
        <ele>813.41</ele>
        <time>2018-03-09T09:58:02Z</time>
      </trkpt>
      <trkpt lat="46.63808" lon="6.02885">
        <ele>813.41</ele>
        <time>2018-03-09T09:58:27Z</time>
      </trkpt>
      <trkpt lat="46.63809" lon="6.02885">
        <ele>813.41</ele>
        <time>2018-03-09T09:58:56Z</time>
      </trkpt>
      <trkpt lat="46.63809" lon="6.02886">
        <ele>812.93</ele>
        <time>2018-03-09T09:59:21Z</time>
      </trkpt>
      <trkpt lat="46.63809" lon="6.02886">
        <ele>813.41</ele>
        <time>2018-03-09T09:59:51Z</time>
      </trkpt>
      <trkpt lat="46.6381" lon="6.02886">
        <ele>813.41</ele>
        <time>2018-03-09T10:00:20Z</time>
      </trkpt>
      <trkpt lat="46.63811" lon="6.02886">
        <ele>812.93</ele>
        <time>2018-03-09T10:00:51Z</time>
      </trkpt>
      <trkpt lat="46.63811" lon="6.02885">
        <ele>812.93</ele>
        <time>2018-03-09T10:01:23Z</time>
      </trkpt>
      <trkpt lat="46.63811" lon="6.02885">
        <ele>813.41</ele>
        <time>2018-03-09T10:01:58Z</time>
      </trkpt>
      <trkpt lat="46.63811" lon="6.02885">
        <ele>813.89</ele>
        <time>2018-03-09T10:02:26Z</time>
      </trkpt>
      <trkpt lat="46.63811" lon="6.02885">
        <ele>813.89</ele>
        <time>2018-03-09T10:02:57Z</time>
      </trkpt>
      <trkpt lat="46.63811" lon="6.02884">
        <ele>813.89</ele>
        <time>2018-03-09T10:03:26Z</time>
      </trkpt>
      <trkpt lat="46.63811" lon="6.02884">
        <ele>814.37</ele>
        <time>2018-03-09T10:03:56Z</time>
      </trkpt>
      <trkpt lat="46.63811" lon="6.02884">
        <ele>813.89</ele>
        <time>2018-03-09T10:04:25Z</time>
      </trkpt>
      <trkpt lat="46.63811" lon="6.02884">
        <ele>813.89</ele>
        <time>2018-03-09T10:04:48Z</time>
      </trkpt>
      <trkpt lat="46.6381" lon="6.02883">
        <ele>814.37</ele>
        <time>2018-03-09T10:05:18Z</time>
      </trkpt>
      <trkpt lat="46.6381" lon="6.02883">
        <ele>813.89</ele>
        <time>2018-03-09T10:05:47Z</time>
      </trkpt>
      <trkpt lat="46.6381" lon="6.02882">
        <ele>814.37</ele>
        <time>2018-03-09T10:06:16Z</time>
      </trkpt>
      <trkpt lat="46.6381" lon="6.02882">
        <ele>814.85</ele>
        <time>2018-03-09T10:06:45Z</time>
      </trkpt>
      <trkpt lat="46.6381" lon="6.02882">
        <ele>815.34</ele>
        <time>2018-03-09T10:07:13Z</time>
      </trkpt>
      <trkpt lat="46.63809" lon="6.02882">
        <ele>814.37</ele>
        <time>2018-03-09T10:07:42Z</time>
      </trkpt>
      <trkpt lat="46.6381" lon="6.0288">
        <ele>814.85</ele>
        <time>2018-03-09T10:08:08Z</time>
      </trkpt>
      <trkpt lat="46.63817" lon="6.02885">
        <ele>814.37</ele>
        <time>2018-03-09T10:08:28Z</time>
      </trkpt>
      <trkpt lat="46.63812" lon="6.02878">
        <ele>815.34</ele>
        <time>2018-03-09T10:08:49Z</time>
      </trkpt>
      <trkpt lat="46.63814" lon="6.02878">
        <ele>816.3</ele>
        <time>2018-03-09T10:09:13Z</time>
      </trkpt>
      <trkpt lat="46.63813" lon="6.02881">
        <ele>815.34</ele>
        <time>2018-03-09T10:09:37Z</time>
      </trkpt>
      <trkpt lat="46.63813" lon="6.02883">
        <ele>815.34</ele>
        <time>2018-03-09T10:10:04Z</time>
      </trkpt>
      <trkpt lat="46.63815" lon="6.02881">
        <ele>815.34</ele>
        <time>2018-03-09T10:10:31Z</time>
      </trkpt>
      <trkpt lat="46.63818" lon="6.02878">
        <ele>815.82</ele>
        <time>2018-03-09T10:10:53Z</time>
      </trkpt>
      <trkpt lat="46.63817" lon="6.02876">
        <ele>815.82</ele>
        <time>2018-03-09T10:11:14Z</time>
      </trkpt>
      <trkpt lat="46.63816" lon="6.02876">
        <ele>814.85</ele>
        <time>2018-03-09T10:11:37Z</time>
      </trkpt>
      <trkpt lat="46.63814" lon="6.02878">
        <ele>815.82</ele>
        <time>2018-03-09T10:12:03Z</time>
      </trkpt>
      <trkpt lat="46.63811" lon="6.02875">
        <ele>816.3</ele>
        <time>2018-03-09T10:12:27Z</time>
      </trkpt>
      <trkpt lat="46.6381" lon="6.02876">
        <ele>815.82</ele>
        <time>2018-03-09T10:12:54Z</time>
      </trkpt>
      <trkpt lat="46.63809" lon="6.02878">
        <ele>815.82</ele>
        <time>2018-03-09T10:13:16Z</time>
      </trkpt>
      <trkpt lat="46.63809" lon="6.02878">
        <ele>815.82</ele>
        <time>2018-03-09T10:13:44Z</time>
      </trkpt>
      <trkpt lat="46.63809" lon="6.02877">
        <ele>816.3</ele>
        <time>2018-03-09T10:14:12Z</time>
      </trkpt>
      <trkpt lat="46.6381" lon="6.02878">
        <ele>816.3</ele>
        <time>2018-03-09T10:14:42Z</time>
      </trkpt>
      <trkpt lat="46.6381" lon="6.0288">
        <ele>815.82</ele>
        <time>2018-03-09T10:15:09Z</time>
      </trkpt>
      <trkpt lat="46.63811" lon="6.02879">
        <ele>816.3</ele>
        <time>2018-03-09T10:15:36Z</time>
      </trkpt>
      <trkpt lat="46.63812" lon="6.0288">
        <ele>816.3</ele>
        <time>2018-03-09T10:16:05Z</time>
      </trkpt>
      <trkpt lat="46.63812" lon="6.02881">
        <ele>815.82</ele>
        <time>2018-03-09T10:16:30Z</time>
      </trkpt>
      <trkpt lat="46.63812" lon="6.02882">
        <ele>816.3</ele>
        <time>2018-03-09T10:16:55Z</time>
      </trkpt>
      <trkpt lat="46.63813" lon="6.02882">
        <ele>816.3</ele>
        <time>2018-03-09T10:17:27Z</time>
      </trkpt>
      <trkpt lat="46.63813" lon="6.02882">
        <ele>816.3</ele>
        <time>2018-03-09T10:17:57Z</time>
      </trkpt>
      <trkpt lat="46.63813" lon="6.02882">
        <ele>816.3</ele>
        <time>2018-03-09T10:18:23Z</time>
      </trkpt>
      <trkpt lat="46.63814" lon="6.02882">
        <ele>816.3</ele>
        <time>2018-03-09T10:18:52Z</time>
      </trkpt>
      <trkpt lat="46.63813" lon="6.02882">
        <ele>815.34</ele>
        <time>2018-03-09T10:19:22Z</time>
      </trkpt>
      <trkpt lat="46.63814" lon="6.02883">
        <ele>815.82</ele>
        <time>2018-03-09T10:19:50Z</time>
      </trkpt>
      <trkpt lat="46.63813" lon="6.02882">
        <ele>815.34</ele>
        <time>2018-03-09T10:20:20Z</time>
      </trkpt>
      <trkpt lat="46.63813" lon="6.02883">
        <ele>815.34</ele>
        <time>2018-03-09T10:20:47Z</time>
      </trkpt>
      <trkpt lat="46.63813" lon="6.02883">
        <ele>815.34</ele>
        <time>2018-03-09T10:21:17Z</time>
      </trkpt>
      <trkpt lat="46.63813" lon="6.02883">
        <ele>814.85</ele>
        <time>2018-03-09T10:21:43Z</time>
      </trkpt>
      <trkpt lat="46.63813" lon="6.02883">
        <ele>814.85</ele>
        <time>2018-03-09T10:22:09Z</time>
      </trkpt>
      <trkpt lat="46.63812" lon="6.02883">
        <ele>815.34</ele>
        <time>2018-03-09T10:22:36Z</time>
      </trkpt>
      <trkpt lat="46.63811" lon="6.02883">
        <ele>814.85</ele>
        <time>2018-03-09T10:23:03Z</time>
      </trkpt>
      <trkpt lat="46.63811" lon="6.02882">
        <ele>814.85</ele>
        <time>2018-03-09T10:23:31Z</time>
      </trkpt>
      <trkpt lat="46.63811" lon="6.02882">
        <ele>814.85</ele>
        <time>2018-03-09T10:23:54Z</time>
      </trkpt>
      <trkpt lat="46.63811" lon="6.02882">
        <ele>815.34</ele>
        <time>2018-03-09T10:24:18Z</time>
      </trkpt>
      <trkpt lat="46.63812" lon="6.02878">
        <ele>814.85</ele>
        <time>2018-03-09T10:24:41Z</time>
      </trkpt>
      <trkpt lat="46.63811" lon="6.02877">
        <ele>814.85</ele>
        <time>2018-03-09T10:25:04Z</time>
      </trkpt>
      <trkpt lat="46.63813" lon="6.02872">
        <ele>814.37</ele>
        <time>2018-03-09T10:25:28Z</time>
      </trkpt>
      <trkpt lat="46.63812" lon="6.02873">
        <ele>814.85</ele>
        <time>2018-03-09T10:25:52Z</time>
      </trkpt>
      <trkpt lat="46.63813" lon="6.02873">
        <ele>814.37</ele>
        <time>2018-03-09T10:26:19Z</time>
      </trkpt>
      <trkpt lat="46.63812" lon="6.02873">
        <ele>814.85</ele>
        <time>2018-03-09T10:26:43Z</time>
      </trkpt>
      <trkpt lat="46.63813" lon="6.02871">
        <ele>814.37</ele>
        <time>2018-03-09T10:27:07Z</time>
      </trkpt>
      <trkpt lat="46.63812" lon="6.02871">
        <ele>814.37</ele>
        <time>2018-03-09T10:27:36Z</time>
      </trkpt>
      <trkpt lat="46.63812" lon="6.02874">
        <ele>814.85</ele>
        <time>2018-03-09T10:28:09Z</time>
      </trkpt>
      <trkpt lat="46.63812" lon="6.02875">
        <ele>814.37</ele>
        <time>2018-03-09T10:28:44Z</time>
      </trkpt>
      <trkpt lat="46.63812" lon="6.02876">
        <ele>814.37</ele>
        <time>2018-03-09T10:29:22Z</time>
      </trkpt>
      <trkpt lat="46.63811" lon="6.02878">
        <ele>814.85</ele>
        <time>2018-03-09T10:29:54Z</time>
      </trkpt>
      <trkpt lat="46.63811" lon="6.02878">
        <ele>814.37</ele>
        <time>2018-03-09T10:30:23Z</time>
      </trkpt>
      <trkpt lat="46.63811" lon="6.02879">
        <ele>814.85</ele>
        <time>2018-03-09T10:30:56Z</time>
      </trkpt>
      <trkpt lat="46.63812" lon="6.02879">
        <ele>814.85</ele>
        <time>2018-03-09T10:31:30Z</time>
      </trkpt>
      <trkpt lat="46.63812" lon="6.0288">
        <ele>815.34</ele>
        <time>2018-03-09T10:32:06Z</time>
      </trkpt>
      <trkpt lat="46.63811" lon="6.0288">
        <ele>814.85</ele>
        <time>2018-03-09T10:32:42Z</time>
      </trkpt>
      <trkpt lat="46.63811" lon="6.0288">
        <ele>815.34</ele>
        <time>2018-03-09T10:33:19Z</time>
      </trkpt>
      <trkpt lat="46.63812" lon="6.0288">
        <ele>814.85</ele>
        <time>2018-03-09T10:33:54Z</time>
      </trkpt>
      <trkpt lat="46.63812" lon="6.0288">
        <ele>815.82</ele>
        <time>2018-03-09T10:34:35Z</time>
      </trkpt>
      <trkpt lat="46.63811" lon="6.0288">
        <ele>815.34</ele>
        <time>2018-03-09T10:35:10Z</time>
      </trkpt>
      <trkpt lat="46.63811" lon="6.0288">
        <ele>815.82</ele>
        <time>2018-03-09T10:35:53Z</time>
      </trkpt>
      <trkpt lat="46.63811" lon="6.0288">
        <ele>815.82</ele>
        <time>2018-03-09T10:36:39Z</time>
      </trkpt>
      <trkpt lat="46.63811" lon="6.0288">
        <ele>815.82</ele>
        <time>2018-03-09T10:37:21Z</time>
      </trkpt>
      <trkpt lat="46.63811" lon="6.0288">
        <ele>816.3</ele>
        <time>2018-03-09T10:38:01Z</time>
      </trkpt>
      <trkpt lat="46.6381" lon="6.0288">
        <ele>815.82</ele>
        <time>2018-03-09T10:38:47Z</time>
      </trkpt>
      <trkpt lat="46.6381" lon="6.0288">
        <ele>815.82</ele>
        <time>2018-03-09T10:39:22Z</time>
      </trkpt>
      <trkpt lat="46.6381" lon="6.02879">
        <ele>816.3</ele>
        <time>2018-03-09T10:39:55Z</time>
      </trkpt>
      <trkpt lat="46.6381" lon="6.02879">
        <ele>816.3</ele>
        <time>2018-03-09T10:40:21Z</time>
      </trkpt>
      <trkpt lat="46.6381" lon="6.02879">
        <ele>816.3</ele>
        <time>2018-03-09T10:40:47Z</time>
      </trkpt>
      <trkpt lat="46.63809" lon="6.02879">
        <ele>816.3</ele>
        <time>2018-03-09T10:41:11Z</time>
      </trkpt>
      <trkpt lat="46.63809" lon="6.02879">
        <ele>815.82</ele>
        <time>2018-03-09T10:41:38Z</time>
      </trkpt>
      <trkpt lat="46.638" lon="6.02883">
        <ele>815.82</ele>
        <time>2018-03-09T10:41:59Z</time>
      </trkpt>
      <trkpt lat="46.638" lon="6.02881">
        <ele>815.82</ele>
        <time>2018-03-09T10:42:24Z</time>
      </trkpt>
      <trkpt lat="46.638" lon="6.02881">
        <ele>815.34</ele>
        <time>2018-03-09T10:42:48Z</time>
      </trkpt>
      <trkpt lat="46.63801" lon="6.0288">
        <ele>816.3</ele>
        <time>2018-03-09T10:43:12Z</time>
      </trkpt>
      <trkpt lat="46.63805" lon="6.02878">
        <ele>816.3</ele>
        <time>2018-03-09T10:43:35Z</time>
      </trkpt>
      <trkpt lat="46.63807" lon="6.02875">
        <ele>816.3</ele>
        <time>2018-03-09T10:44:00Z</time>
      </trkpt>
      <trkpt lat="46.63808" lon="6.02874">
        <ele>815.82</ele>
        <time>2018-03-09T10:44:23Z</time>
      </trkpt>
      <trkpt lat="46.63809" lon="6.02872">
        <ele>815.82</ele>
        <time>2018-03-09T10:44:49Z</time>
      </trkpt>
      <trkpt lat="46.63811" lon="6.0287">
        <ele>816.3</ele>
        <time>2018-03-09T10:45:16Z</time>
      </trkpt>
      <trkpt lat="46.63812" lon="6.0287">
        <ele>815.34</ele>
        <time>2018-03-09T10:45:44Z</time>
      </trkpt>
      <trkpt lat="46.63806" lon="6.02867">
        <ele>816.3</ele>
        <time>2018-03-09T10:46:11Z</time>
      </trkpt>
      <trkpt lat="46.63805" lon="6.02869">
        <ele>816.78</ele>
        <time>2018-03-09T10:46:40Z</time>
      </trkpt>
      <trkpt lat="46.63804" lon="6.02877">
        <ele>816.3</ele>
        <time>2018-03-09T10:47:15Z</time>
      </trkpt>
      <trkpt lat="46.63804" lon="6.02878">
        <ele>816.3</ele>
        <time>2018-03-09T10:47:44Z</time>
      </trkpt>
      <trkpt lat="46.63806" lon="6.02878">
        <ele>816.3</ele>
        <time>2018-03-09T10:48:10Z</time>
      </trkpt>
      <trkpt lat="46.63807" lon="6.0288">
        <ele>817.26</ele>
        <time>2018-03-09T10:48:38Z</time>
      </trkpt>
      <trkpt lat="46.63807" lon="6.02882">
        <ele>816.78</ele>
        <time>2018-03-09T10:49:01Z</time>
      </trkpt>
      <trkpt lat="46.63808" lon="6.02883">
        <ele>816.78</ele>
        <time>2018-03-09T10:49:27Z</time>
      </trkpt>
      <trkpt lat="46.63808" lon="6.02881">
        <ele>816.78</ele>
        <time>2018-03-09T10:49:55Z</time>
      </trkpt>
      <trkpt lat="46.63808" lon="6.0288">
        <ele>816.3</ele>
        <time>2018-03-09T10:50:30Z</time>
      </trkpt>
      <trkpt lat="46.63808" lon="6.02882">
        <ele>816.3</ele>
        <time>2018-03-09T10:51:06Z</time>
      </trkpt>
      <trkpt lat="46.63808" lon="6.02882">
        <ele>817.26</ele>
        <time>2018-03-09T10:51:40Z</time>
      </trkpt>
      <trkpt lat="46.63809" lon="6.02881">
        <ele>816.78</ele>
        <time>2018-03-09T10:52:15Z</time>
      </trkpt>
      <trkpt lat="46.6381" lon="6.02881">
        <ele>816.3</ele>
        <time>2018-03-09T10:52:52Z</time>
      </trkpt>
      <trkpt lat="46.6381" lon="6.02881">
        <ele>816.3</ele>
        <time>2018-03-09T10:53:29Z</time>
      </trkpt>
      <trkpt lat="46.6381" lon="6.0288">
        <ele>816.3</ele>
        <time>2018-03-09T10:54:08Z</time>
      </trkpt>
      <trkpt lat="46.63809" lon="6.0288">
        <ele>816.78</ele>
        <time>2018-03-09T10:54:38Z</time>
      </trkpt>
      <trkpt lat="46.63809" lon="6.02881">
        <ele>816.3</ele>
        <time>2018-03-09T10:55:16Z</time>
      </trkpt>
      <trkpt lat="46.63809" lon="6.02881">
        <ele>816.78</ele>
        <time>2018-03-09T10:55:53Z</time>
      </trkpt>
      <trkpt lat="46.63809" lon="6.02881">
        <ele>815.82</ele>
        <time>2018-03-09T10:56:25Z</time>
      </trkpt>
      <trkpt lat="46.63809" lon="6.02881">
        <ele>816.3</ele>
        <time>2018-03-09T10:56:54Z</time>
      </trkpt>
      <trkpt lat="46.63809" lon="6.0288">
        <ele>815.82</ele>
        <time>2018-03-09T10:57:20Z</time>
      </trkpt>
      <trkpt lat="46.6381" lon="6.02881">
        <ele>816.3</ele>
        <time>2018-03-09T10:57:47Z</time>
      </trkpt>
      <trkpt lat="46.63809" lon="6.02882">
        <ele>816.3</ele>
        <time>2018-03-09T10:58:11Z</time>
      </trkpt>
      <trkpt lat="46.63809" lon="6.02882">
        <ele>816.3</ele>
        <time>2018-03-09T10:58:33Z</time>
      </trkpt>
      <trkpt lat="46.63809" lon="6.02882">
        <ele>816.78</ele>
        <time>2018-03-09T10:58:58Z</time>
      </trkpt>
      <trkpt lat="46.63809" lon="6.02882">
        <ele>816.78</ele>
        <time>2018-03-09T10:59:22Z</time>
      </trkpt>
      <trkpt lat="46.63808" lon="6.02883">
        <ele>815.82</ele>
        <time>2018-03-09T10:59:52Z</time>
      </trkpt>
      <trkpt lat="46.63804" lon="6.02889">
        <ele>816.3</ele>
        <time>2018-03-09T11:00:14Z</time>
      </trkpt>
      <trkpt lat="46.63805" lon="6.02889">
        <ele>816.3</ele>
        <time>2018-03-09T11:00:35Z</time>
      </trkpt>
      <trkpt lat="46.63806" lon="6.0289">
        <ele>816.78</ele>
        <time>2018-03-09T11:00:55Z</time>
      </trkpt>
      <trkpt lat="46.63805" lon="6.02891">
        <ele>816.78</ele>
        <time>2018-03-09T11:01:10Z</time>
      </trkpt>
      <trkpt lat="46.63797" lon="6.02908">
        <ele>815.82</ele>
        <time>2018-03-09T11:01:36Z</time>
      </trkpt>
      <trkpt lat="46.63803" lon="6.02899">
        <ele>815.82</ele>
        <time>2018-03-09T11:02:02Z</time>
      </trkpt>
      <trkpt lat="46.63806" lon="6.0289">
        <ele>816.3</ele>
        <time>2018-03-09T11:02:27Z</time>
      </trkpt>
      <trkpt lat="46.63808" lon="6.02884">
        <ele>815.82</ele>
        <time>2018-03-09T11:02:57Z</time>
      </trkpt>
      <trkpt lat="46.63808" lon="6.02878">
        <ele>815.34</ele>
        <time>2018-03-09T11:03:32Z</time>
      </trkpt>
      <trkpt lat="46.63808" lon="6.02877">
        <ele>815.82</ele>
        <time>2018-03-09T11:04:02Z</time>
      </trkpt>
      <trkpt lat="46.63808" lon="6.02877">
        <ele>815.82</ele>
        <time>2018-03-09T11:04:35Z</time>
      </trkpt>
      <trkpt lat="46.63808" lon="6.02875">
        <ele>815.34</ele>
        <time>2018-03-09T11:05:06Z</time>
      </trkpt>
      <trkpt lat="46.63808" lon="6.02874">
        <ele>815.34</ele>
        <time>2018-03-09T11:05:36Z</time>
      </trkpt>
      <trkpt lat="46.63809" lon="6.02879">
        <ele>816.3</ele>
        <time>2018-03-09T11:06:00Z</time>
      </trkpt>
      <trkpt lat="46.63809" lon="6.02883">
        <ele>815.82</ele>
        <time>2018-03-09T11:06:30Z</time>
      </trkpt>
      <trkpt lat="46.63809" lon="6.02882">
        <ele>815.34</ele>
        <time>2018-03-09T11:06:59Z</time>
      </trkpt>
      <trkpt lat="46.63809" lon="6.02881">
        <ele>815.82</ele>
        <time>2018-03-09T11:07:21Z</time>
      </trkpt>
      <trkpt lat="46.63809" lon="6.02881">
        <ele>814.85</ele>
        <time>2018-03-09T11:07:45Z</time>
      </trkpt>
      <trkpt lat="46.6381" lon="6.02884">
        <ele>815.34</ele>
        <time>2018-03-09T11:08:15Z</time>
      </trkpt>
      <trkpt lat="46.63809" lon="6.02883">
        <ele>815.34</ele>
        <time>2018-03-09T11:08:42Z</time>
      </trkpt>
      <trkpt lat="46.63809" lon="6.02885">
        <ele>815.34</ele>
        <time>2018-03-09T11:09:05Z</time>
      </trkpt>
      <trkpt lat="46.63809" lon="6.02886">
        <ele>815.34</ele>
        <time>2018-03-09T11:09:34Z</time>
      </trkpt>
      <trkpt lat="46.63808" lon="6.02886">
        <ele>815.82</ele>
        <time>2018-03-09T11:09:57Z</time>
      </trkpt>
      <trkpt lat="46.63808" lon="6.02882">
        <ele>815.34</ele>
        <time>2018-03-09T11:10:21Z</time>
      </trkpt>
      <trkpt lat="46.63808" lon="6.02889">
        <ele>815.34</ele>
        <time>2018-03-09T11:10:45Z</time>
      </trkpt>
      <trkpt lat="46.63807" lon="6.02888">
        <ele>816.3</ele>
        <time>2018-03-09T11:11:15Z</time>
      </trkpt>
      <trkpt lat="46.63806" lon="6.02884">
        <ele>815.82</ele>
        <time>2018-03-09T11:11:41Z</time>
      </trkpt>
      <trkpt lat="46.63806" lon="6.02881">
        <ele>816.3</ele>
        <time>2018-03-09T11:12:07Z</time>
      </trkpt>
      <trkpt lat="46.63805" lon="6.02884">
        <ele>816.3</ele>
        <time>2018-03-09T11:12:30Z</time>
      </trkpt>
      <trkpt lat="46.63805" lon="6.02886">
        <ele>815.82</ele>
        <time>2018-03-09T11:12:52Z</time>
      </trkpt>
      <trkpt lat="46.63804" lon="6.02886">
        <ele>816.3</ele>
        <time>2018-03-09T11:13:16Z</time>
      </trkpt>
      <trkpt lat="46.63804" lon="6.02886">
        <ele>815.82</ele>
        <time>2018-03-09T11:13:38Z</time>
      </trkpt>
      <trkpt lat="46.63804" lon="6.02888">
        <ele>816.3</ele>
        <time>2018-03-09T11:14:04Z</time>
      </trkpt>
      <trkpt lat="46.63805" lon="6.02888">
        <ele>816.3</ele>
        <time>2018-03-09T11:14:28Z</time>
      </trkpt>
      <trkpt lat="46.63805" lon="6.02887">
        <ele>816.78</ele>
        <time>2018-03-09T11:14:54Z</time>
      </trkpt>
      <trkpt lat="46.63806" lon="6.02885">
        <ele>816.78</ele>
        <time>2018-03-09T11:15:19Z</time>
      </trkpt>
      <trkpt lat="46.63807" lon="6.02883">
        <ele>816.3</ele>
        <time>2018-03-09T11:15:46Z</time>
      </trkpt>
      <trkpt lat="46.63806" lon="6.02874">
        <ele>817.74</ele>
        <time>2018-03-09T11:16:19Z</time>
      </trkpt>
      <trkpt lat="46.63807" lon="6.0288">
        <ele>817.26</ele>
        <time>2018-03-09T11:16:51Z</time>
      </trkpt>
      <trkpt lat="46.63808" lon="6.02881">
        <ele>817.26</ele>
        <time>2018-03-09T11:17:24Z</time>
      </trkpt>
      <trkpt lat="46.63808" lon="6.0288">
        <ele>816.78</ele>
        <time>2018-03-09T11:17:56Z</time>
      </trkpt>
      <trkpt lat="46.63808" lon="6.0288">
        <ele>817.26</ele>
        <time>2018-03-09T11:18:31Z</time>
      </trkpt>
      <trkpt lat="46.63808" lon="6.02881">
        <ele>817.26</ele>
        <time>2018-03-09T11:19:07Z</time>
      </trkpt>
      <trkpt lat="46.63808" lon="6.02881">
        <ele>817.74</ele>
        <time>2018-03-09T11:19:30Z</time>
      </trkpt>
      <trkpt lat="46.63805" lon="6.02895">
        <ele>817.26</ele>
        <time>2018-03-09T11:19:49Z</time>
      </trkpt>
      <trkpt lat="46.63814" lon="6.02875">
        <ele>817.74</ele>
        <time>2018-03-09T11:20:09Z</time>
      </trkpt>
      <trkpt lat="46.63815" lon="6.02856">
        <ele>817.74</ele>
        <time>2018-03-09T11:20:36Z</time>
      </trkpt>
      <trkpt lat="46.6381" lon="6.02863">
        <ele>818.22</ele>
        <time>2018-03-09T11:20:55Z</time>
      </trkpt>
      <trkpt lat="46.63809" lon="6.02863">
        <ele>817.74</ele>
        <time>2018-03-09T11:21:16Z</time>
      </trkpt>
      <trkpt lat="46.63806" lon="6.02862">
        <ele>818.22</ele>
        <time>2018-03-09T11:21:39Z</time>
      </trkpt>
      <trkpt lat="46.63808" lon="6.02863">
        <ele>818.22</ele>
        <time>2018-03-09T11:22:04Z</time>
      </trkpt>
      <trkpt lat="46.63808" lon="6.02867">
        <ele>818.7</ele>
        <time>2018-03-09T11:22:28Z</time>
      </trkpt>
      <trkpt lat="46.63807" lon="6.02872">
        <ele>818.7</ele>
        <time>2018-03-09T11:23:01Z</time>
      </trkpt>
      <trkpt lat="46.63807" lon="6.02872">
        <ele>818.22</ele>
        <time>2018-03-09T11:23:36Z</time>
      </trkpt>
      <trkpt lat="46.63806" lon="6.02876">
        <ele>818.22</ele>
        <time>2018-03-09T11:24:12Z</time>
      </trkpt>
      <trkpt lat="46.63806" lon="6.02877">
        <ele>817.74</ele>
        <time>2018-03-09T11:24:49Z</time>
      </trkpt>
      <trkpt lat="46.63806" lon="6.02876">
        <ele>818.22</ele>
        <time>2018-03-09T11:25:26Z</time>
      </trkpt>
      <trkpt lat="46.63806" lon="6.02876">
        <ele>817.74</ele>
        <time>2018-03-09T11:26:01Z</time>
      </trkpt>
      <trkpt lat="46.63806" lon="6.02876">
        <ele>818.7</ele>
        <time>2018-03-09T11:26:38Z</time>
      </trkpt>
      <trkpt lat="46.63806" lon="6.02879">
        <ele>818.7</ele>
        <time>2018-03-09T11:27:12Z</time>
      </trkpt>
      <trkpt lat="46.63804" lon="6.02878">
        <ele>818.7</ele>
        <time>2018-03-09T11:27:42Z</time>
      </trkpt>
      <trkpt lat="46.63804" lon="6.02879">
        <ele>818.7</ele>
        <time>2018-03-09T11:28:17Z</time>
      </trkpt>
      <trkpt lat="46.63805" lon="6.02879">
        <ele>818.7</ele>
        <time>2018-03-09T11:28:50Z</time>
      </trkpt>
      <trkpt lat="46.63806" lon="6.0288">
        <ele>818.22</ele>
        <time>2018-03-09T11:29:24Z</time>
      </trkpt>
      <trkpt lat="46.63807" lon="6.02883">
        <ele>818.22</ele>
        <time>2018-03-09T11:29:55Z</time>
      </trkpt>
      <trkpt lat="46.63807" lon="6.02885">
        <ele>818.7</ele>
        <time>2018-03-09T11:30:23Z</time>
      </trkpt>
      <trkpt lat="46.63807" lon="6.0288">
        <ele>818.22</ele>
        <time>2018-03-09T11:30:54Z</time>
      </trkpt>
      <trkpt lat="46.63807" lon="6.02881">
        <ele>818.7</ele>
        <time>2018-03-09T11:31:21Z</time>
      </trkpt>
      <trkpt lat="46.63806" lon="6.02885">
        <ele>818.7</ele>
        <time>2018-03-09T11:31:51Z</time>
      </trkpt>
      <trkpt lat="46.63806" lon="6.02889">
        <ele>818.7</ele>
        <time>2018-03-09T11:32:17Z</time>
      </trkpt>
      <trkpt lat="46.63807" lon="6.02883">
        <ele>818.7</ele>
        <time>2018-03-09T11:32:38Z</time>
      </trkpt>
      <trkpt lat="46.63811" lon="6.02867">
        <ele>818.7</ele>
        <time>2018-03-09T11:33:01Z</time>
      </trkpt>
      <trkpt lat="46.63811" lon="6.02864">
        <ele>818.7</ele>
        <time>2018-03-09T11:33:04Z</time>
      </trkpt>
      <trkpt lat="46.63815" lon="6.02852">
        <ele>818.7</ele>
        <time>2018-03-09T11:33:32Z</time>
      </trkpt>
      <trkpt lat="46.63813" lon="6.02857">
        <ele>818.7</ele>
        <time>2018-03-09T11:33:41Z</time>
      </trkpt>
      <trkpt lat="46.63809" lon="6.02871">
        <ele>818.7</ele>
        <time>2018-03-09T11:34:01Z</time>
      </trkpt>
      <trkpt lat="46.63811" lon="6.02862">
        <ele>819.18</ele>
        <time>2018-03-09T11:34:13Z</time>
      </trkpt>
      <trkpt lat="46.63817" lon="6.02842">
        <ele>819.18</ele>
        <time>2018-03-09T11:34:39Z</time>
      </trkpt>
      <trkpt lat="46.6382" lon="6.02836">
        <ele>819.18</ele>
        <time>2018-03-09T11:35:07Z</time>
      </trkpt>
      <trkpt lat="46.63805" lon="6.02902">
        <ele>819.18</ele>
        <time>2018-03-09T11:35:52Z</time>
      </trkpt>
      <trkpt lat="46.63804" lon="6.02891">
        <ele>819.66</ele>
        <time>2018-03-09T11:36:18Z</time>
      </trkpt>
      <trkpt lat="46.63804" lon="6.02886">
        <ele>819.18</ele>
        <time>2018-03-09T11:36:53Z</time>
      </trkpt>
      <trkpt lat="46.63802" lon="6.02884">
        <ele>819.66</ele>
        <time>2018-03-09T11:37:20Z</time>
      </trkpt>
      <trkpt lat="46.63802" lon="6.02883">
        <ele>820.14</ele>
        <time>2018-03-09T11:37:49Z</time>
      </trkpt>
      <trkpt lat="46.63806" lon="6.02888">
        <ele>819.66</ele>
        <time>2018-03-09T11:38:15Z</time>
      </trkpt>
      <trkpt lat="46.63806" lon="6.02887">
        <ele>820.14</ele>
        <time>2018-03-09T11:38:43Z</time>
      </trkpt>
      <trkpt lat="46.63806" lon="6.02886">
        <ele>820.14</ele>
        <time>2018-03-09T11:39:11Z</time>
      </trkpt>
      <trkpt lat="46.63806" lon="6.02889">
        <ele>820.62</ele>
        <time>2018-03-09T11:39:40Z</time>
      </trkpt>
      <trkpt lat="46.63808" lon="6.02886">
        <ele>820.14</ele>
        <time>2018-03-09T11:40:04Z</time>
      </trkpt>
      <trkpt lat="46.63808" lon="6.02878">
        <ele>820.62</ele>
        <time>2018-03-09T11:40:34Z</time>
      </trkpt>
      <trkpt lat="46.63809" lon="6.02878">
        <ele>820.14</ele>
        <time>2018-03-09T11:41:02Z</time>
      </trkpt>
      <trkpt lat="46.63808" lon="6.02873">
        <ele>820.62</ele>
        <time>2018-03-09T11:41:25Z</time>
      </trkpt>
      <trkpt lat="46.63807" lon="6.02865">
        <ele>819.66</ele>
        <time>2018-03-09T11:41:53Z</time>
      </trkpt>
      <trkpt lat="46.63806" lon="6.02864">
        <ele>820.62</ele>
        <time>2018-03-09T11:42:21Z</time>
      </trkpt>
      <trkpt lat="46.63807" lon="6.02868">
        <ele>820.14</ele>
        <time>2018-03-09T11:42:44Z</time>
      </trkpt>
      <trkpt lat="46.63808" lon="6.02872">
        <ele>819.66</ele>
        <time>2018-03-09T11:43:10Z</time>
      </trkpt>
      <trkpt lat="46.63812" lon="6.02865">
        <ele>819.66</ele>
        <time>2018-03-09T11:43:53Z</time>
      </trkpt>
      <trkpt lat="46.63813" lon="6.02863">
        <ele>819.66</ele>
        <time>2018-03-09T11:44:20Z</time>
      </trkpt>
      <trkpt lat="46.63813" lon="6.0287">
        <ele>820.14</ele>
        <time>2018-03-09T11:44:51Z</time>
      </trkpt>
      <trkpt lat="46.63813" lon="6.02872">
        <ele>819.66</ele>
        <time>2018-03-09T11:45:21Z</time>
      </trkpt>
      <trkpt lat="46.6381" lon="6.02873">
        <ele>819.18</ele>
        <time>2018-03-09T11:45:47Z</time>
      </trkpt>
      <trkpt lat="46.63809" lon="6.02874">
        <ele>819.18</ele>
        <time>2018-03-09T11:46:19Z</time>
      </trkpt>
      <trkpt lat="46.63809" lon="6.02874">
        <ele>819.66</ele>
        <time>2018-03-09T11:46:55Z</time>
      </trkpt>
      <trkpt lat="46.63809" lon="6.02874">
        <ele>819.18</ele>
        <time>2018-03-09T11:47:28Z</time>
      </trkpt>
      <trkpt lat="46.63809" lon="6.02874">
        <ele>819.18</ele>
        <time>2018-03-09T11:47:59Z</time>
      </trkpt>
      <trkpt lat="46.6381" lon="6.02874">
        <ele>819.18</ele>
        <time>2018-03-09T11:48:32Z</time>
      </trkpt>
      <trkpt lat="46.6381" lon="6.02875">
        <ele>818.7</ele>
        <time>2018-03-09T11:49:07Z</time>
      </trkpt>
      <trkpt lat="46.6381" lon="6.02876">
        <ele>818.7</ele>
        <time>2018-03-09T11:49:42Z</time>
      </trkpt>
      <trkpt lat="46.6381" lon="6.02878">
        <ele>818.7</ele>
        <time>2018-03-09T11:50:11Z</time>
      </trkpt>
      <trkpt lat="46.6381" lon="6.02879">
        <ele>818.7</ele>
        <time>2018-03-09T11:50:46Z</time>
      </trkpt>
      <trkpt lat="46.63811" lon="6.02879">
        <ele>819.18</ele>
        <time>2018-03-09T11:51:17Z</time>
      </trkpt>
      <trkpt lat="46.63811" lon="6.0288">
        <ele>819.18</ele>
        <time>2018-03-09T11:51:46Z</time>
      </trkpt>
      <trkpt lat="46.63811" lon="6.02879">
        <ele>819.18</ele>
        <time>2018-03-09T11:52:14Z</time>
      </trkpt>
      <trkpt lat="46.63811" lon="6.0288">
        <ele>819.66</ele>
        <time>2018-03-09T11:52:44Z</time>
      </trkpt>
      <trkpt lat="46.63811" lon="6.02881">
        <ele>819.18</ele>
        <time>2018-03-09T11:53:18Z</time>
      </trkpt>
      <trkpt lat="46.63811" lon="6.02881">
        <ele>818.7</ele>
        <time>2018-03-09T11:53:47Z</time>
      </trkpt>
      <trkpt lat="46.63812" lon="6.02882">
        <ele>818.7</ele>
        <time>2018-03-09T11:54:19Z</time>
      </trkpt>
      <trkpt lat="46.63812" lon="6.02882">
        <ele>818.7</ele>
        <time>2018-03-09T11:54:55Z</time>
      </trkpt>
      <trkpt lat="46.63812" lon="6.02882">
        <ele>818.7</ele>
        <time>2018-03-09T11:55:34Z</time>
      </trkpt>
      <trkpt lat="46.63812" lon="6.02883">
        <ele>818.22</ele>
        <time>2018-03-09T11:56:10Z</time>
      </trkpt>
      <trkpt lat="46.63812" lon="6.02883">
        <ele>817.74</ele>
        <time>2018-03-09T11:56:43Z</time>
      </trkpt>
      <trkpt lat="46.63812" lon="6.02882">
        <ele>817.26</ele>
        <time>2018-03-09T11:57:13Z</time>
      </trkpt>
      <trkpt lat="46.63812" lon="6.02882">
        <ele>816.78</ele>
        <time>2018-03-09T11:57:46Z</time>
      </trkpt>
      <trkpt lat="46.63801" lon="6.02879">
        <ele>817.26</ele>
        <time>2018-03-09T11:58:17Z</time>
      </trkpt>
      <trkpt lat="46.63802" lon="6.02879">
        <ele>817.26</ele>
        <time>2018-03-09T11:58:42Z</time>
      </trkpt>
      <trkpt lat="46.638" lon="6.02877">
        <ele>817.26</ele>
        <time>2018-03-09T11:59:09Z</time>
      </trkpt>
      <trkpt lat="46.63795" lon="6.02871">
        <ele>817.26</ele>
        <time>2018-03-09T11:59:36Z</time>
      </trkpt>
      <trkpt lat="46.63812" lon="6.02885">
        <ele>817.26</ele>
        <time>2018-03-09T11:59:58Z</time>
      </trkpt>
      <trkpt lat="46.63814" lon="6.02887">
        <ele>817.74</ele>
        <time>2018-03-09T12:00:22Z</time>
      </trkpt>
      <trkpt lat="46.63815" lon="6.02886">
        <ele>817.74</ele>
        <time>2018-03-09T12:00:49Z</time>
      </trkpt>
      <trkpt lat="46.63817" lon="6.02886">
        <ele>817.74</ele>
        <time>2018-03-09T12:01:13Z</time>
      </trkpt>
      <trkpt lat="46.63801" lon="6.02875">
        <ele>817.26</ele>
        <time>2018-03-09T12:01:35Z</time>
      </trkpt>
      <trkpt lat="46.63798" lon="6.02875">
        <ele>817.74</ele>
        <time>2018-03-09T12:01:57Z</time>
      </trkpt>
      <trkpt lat="46.63802" lon="6.02877">
        <ele>817.74</ele>
        <time>2018-03-09T12:02:27Z</time>
      </trkpt>
      <trkpt lat="46.63806" lon="6.02878">
        <ele>817.74</ele>
        <time>2018-03-09T12:02:51Z</time>
      </trkpt>
      <trkpt lat="46.63809" lon="6.02881">
        <ele>817.74</ele>
        <time>2018-03-09T12:03:16Z</time>
      </trkpt>
      <trkpt lat="46.63811" lon="6.02882">
        <ele>818.22</ele>
        <time>2018-03-09T12:03:44Z</time>
      </trkpt>
      <trkpt lat="46.63813" lon="6.02884">
        <ele>818.22</ele>
        <time>2018-03-09T12:04:09Z</time>
      </trkpt>
      <trkpt lat="46.63817" lon="6.02886">
        <ele>818.22</ele>
        <time>2018-03-09T12:04:35Z</time>
      </trkpt>
      <trkpt lat="46.63817" lon="6.02887">
        <ele>818.22</ele>
        <time>2018-03-09T12:05:00Z</time>
      </trkpt>
      <trkpt lat="46.63819" lon="6.02888">
        <ele>818.22</ele>
        <time>2018-03-09T12:05:20Z</time>
      </trkpt>
      <trkpt lat="46.63819" lon="6.02888">
        <ele>818.22</ele>
        <time>2018-03-09T12:05:45Z</time>
      </trkpt>
      <trkpt lat="46.63818" lon="6.02887">
        <ele>818.22</ele>
        <time>2018-03-09T12:06:14Z</time>
      </trkpt>
      <trkpt lat="46.63818" lon="6.02887">
        <ele>818.7</ele>
        <time>2018-03-09T12:06:37Z</time>
      </trkpt>
      <trkpt lat="46.63818" lon="6.02887">
        <ele>818.22</ele>
        <time>2018-03-09T12:07:04Z</time>
      </trkpt>
      <trkpt lat="46.63817" lon="6.02887">
        <ele>818.7</ele>
        <time>2018-03-09T12:07:33Z</time>
      </trkpt>
      <trkpt lat="46.63816" lon="6.02888">
        <ele>818.7</ele>
        <time>2018-03-09T12:08:01Z</time>
      </trkpt>
      <trkpt lat="46.63816" lon="6.02888">
        <ele>818.22</ele>
        <time>2018-03-09T12:08:25Z</time>
      </trkpt>
      <trkpt lat="46.63816" lon="6.02889">
        <ele>819.18</ele>
        <time>2018-03-09T12:08:51Z</time>
      </trkpt>
      <trkpt lat="46.63815" lon="6.02889">
        <ele>818.7</ele>
        <time>2018-03-09T12:09:12Z</time>
      </trkpt>
      <trkpt lat="46.63816" lon="6.02889">
        <ele>818.7</ele>
        <time>2018-03-09T12:09:26Z</time>
      </trkpt>
      <trkpt lat="46.63818" lon="6.02884">
        <ele>818.22</ele>
        <time>2018-03-09T12:09:48Z</time>
      </trkpt>
      <trkpt lat="46.63807" lon="6.02881">
        <ele>818.22</ele>
        <time>2018-03-09T12:10:15Z</time>
      </trkpt>
      <trkpt lat="46.63803" lon="6.02879">
        <ele>818.22</ele>
        <time>2018-03-09T12:10:45Z</time>
      </trkpt>
      <trkpt lat="46.63801" lon="6.02878">
        <ele>818.7</ele>
        <time>2018-03-09T12:11:15Z</time>
      </trkpt>
      <trkpt lat="46.63801" lon="6.02883">
        <ele>818.22</ele>
        <time>2018-03-09T12:11:40Z</time>
      </trkpt>
      <trkpt lat="46.63802" lon="6.02882">
        <ele>818.22</ele>
        <time>2018-03-09T12:12:03Z</time>
      </trkpt>
      <trkpt lat="46.63804" lon="6.02881">
        <ele>818.22</ele>
        <time>2018-03-09T12:12:33Z</time>
      </trkpt>
      <trkpt lat="46.63805" lon="6.02881">
        <ele>818.7</ele>
        <time>2018-03-09T12:13:06Z</time>
      </trkpt>
      <trkpt lat="46.63807" lon="6.02881">
        <ele>818.7</ele>
        <time>2018-03-09T12:13:36Z</time>
      </trkpt>
      <trkpt lat="46.63807" lon="6.02881">
        <ele>818.22</ele>
        <time>2018-03-09T12:14:06Z</time>
      </trkpt>
      <trkpt lat="46.63808" lon="6.02881">
        <ele>817.74</ele>
        <time>2018-03-09T12:14:41Z</time>
      </trkpt>
      <trkpt lat="46.63809" lon="6.02881">
        <ele>818.7</ele>
        <time>2018-03-09T12:15:17Z</time>
      </trkpt>
      <trkpt lat="46.63809" lon="6.02882">
        <ele>818.7</ele>
        <time>2018-03-09T12:15:55Z</time>
      </trkpt>
      <trkpt lat="46.63809" lon="6.02882">
        <ele>818.7</ele>
        <time>2018-03-09T12:16:27Z</time>
      </trkpt>
      <trkpt lat="46.63808" lon="6.02882">
        <ele>818.7</ele>
        <time>2018-03-09T12:16:57Z</time>
      </trkpt>
      <trkpt lat="46.63808" lon="6.02884">
        <ele>818.7</ele>
        <time>2018-03-09T12:17:22Z</time>
      </trkpt>
      <trkpt lat="46.63808" lon="6.02879">
        <ele>817.74</ele>
        <time>2018-03-09T12:17:46Z</time>
      </trkpt>
      <trkpt lat="46.63808" lon="6.02878">
        <ele>818.22</ele>
        <time>2018-03-09T12:18:11Z</time>
      </trkpt>
      <trkpt lat="46.63807" lon="6.02881">
        <ele>818.22</ele>
        <time>2018-03-09T12:18:34Z</time>
      </trkpt>
      <trkpt lat="46.63807" lon="6.02881">
        <ele>818.22</ele>
        <time>2018-03-09T12:19:02Z</time>
      </trkpt>
      <trkpt lat="46.63808" lon="6.02881">
        <ele>818.7</ele>
        <time>2018-03-09T12:19:28Z</time>
      </trkpt>
      <trkpt lat="46.63807" lon="6.02881">
        <ele>818.7</ele>
        <time>2018-03-09T12:19:52Z</time>
      </trkpt>
      <trkpt lat="46.63808" lon="6.0288">
        <ele>818.22</ele>
        <time>2018-03-09T12:20:19Z</time>
      </trkpt>
      <trkpt lat="46.63808" lon="6.02878">
        <ele>818.22</ele>
        <time>2018-03-09T12:20:45Z</time>
      </trkpt>
      <trkpt lat="46.63806" lon="6.02879">
        <ele>818.7</ele>
        <time>2018-03-09T12:21:13Z</time>
      </trkpt>
      <trkpt lat="46.63805" lon="6.02879">
        <ele>818.22</ele>
        <time>2018-03-09T12:21:44Z</time>
      </trkpt>
      <trkpt lat="46.63806" lon="6.02878">
        <ele>818.7</ele>
        <time>2018-03-09T12:22:22Z</time>
      </trkpt>
      <trkpt lat="46.63806" lon="6.02878">
        <ele>818.22</ele>
        <time>2018-03-09T12:22:57Z</time>
      </trkpt>
      <trkpt lat="46.63807" lon="6.02877">
        <ele>818.22</ele>
        <time>2018-03-09T12:23:31Z</time>
      </trkpt>
      <trkpt lat="46.63807" lon="6.02877">
        <ele>818.22</ele>
        <time>2018-03-09T12:24:09Z</time>
      </trkpt>
      <trkpt lat="46.63807" lon="6.02878">
        <ele>818.22</ele>
        <time>2018-03-09T12:24:44Z</time>
      </trkpt>
      <trkpt lat="46.63807" lon="6.02878">
        <ele>818.22</ele>
        <time>2018-03-09T12:25:21Z</time>
      </trkpt>
      <trkpt lat="46.63805" lon="6.02879">
        <ele>817.74</ele>
        <time>2018-03-09T12:25:53Z</time>
      </trkpt>
      <trkpt lat="46.63806" lon="6.02879">
        <ele>817.74</ele>
        <time>2018-03-09T12:26:17Z</time>
      </trkpt>
      <trkpt lat="46.63806" lon="6.02878">
        <ele>818.22</ele>
        <time>2018-03-09T12:26:45Z</time>
      </trkpt>
      <trkpt lat="46.63806" lon="6.02877">
        <ele>818.7</ele>
        <time>2018-03-09T12:27:15Z</time>
      </trkpt>
      <trkpt lat="46.63806" lon="6.02879">
        <ele>818.22</ele>
        <time>2018-03-09T12:27:44Z</time>
      </trkpt>
      <trkpt lat="46.63807" lon="6.02879">
        <ele>819.18</ele>
        <time>2018-03-09T12:28:18Z</time>
      </trkpt>
      <trkpt lat="46.63807" lon="6.0288">
        <ele>818.7</ele>
        <time>2018-03-09T12:28:55Z</time>
      </trkpt>
      <trkpt lat="46.63808" lon="6.02881">
        <ele>818.7</ele>
        <time>2018-03-09T12:29:32Z</time>
      </trkpt>
      <trkpt lat="46.63809" lon="6.0288">
        <ele>818.7</ele>
        <time>2018-03-09T12:30:09Z</time>
      </trkpt>
      <trkpt lat="46.6381" lon="6.0288">
        <ele>819.18</ele>
        <time>2018-03-09T12:30:49Z</time>
      </trkpt>
      <trkpt lat="46.63811" lon="6.0288">
        <ele>818.7</ele>
        <time>2018-03-09T12:31:26Z</time>
      </trkpt>
      <trkpt lat="46.63811" lon="6.0288">
        <ele>818.22</ele>
        <time>2018-03-09T12:32:00Z</time>
      </trkpt>
      <trkpt lat="46.63811" lon="6.0288">
        <ele>818.22</ele>
        <time>2018-03-09T12:32:37Z</time>
      </trkpt>
      <trkpt lat="46.6381" lon="6.0288">
        <ele>818.7</ele>
        <time>2018-03-09T12:33:11Z</time>
      </trkpt>
      <trkpt lat="46.6381" lon="6.02881">
        <ele>818.22</ele>
        <time>2018-03-09T12:33:41Z</time>
      </trkpt>
      <trkpt lat="46.6381" lon="6.02881">
        <ele>818.22</ele>
        <time>2018-03-09T12:34:12Z</time>
      </trkpt>
      <trkpt lat="46.63811" lon="6.02881">
        <ele>818.22</ele>
        <time>2018-03-09T12:34:43Z</time>
      </trkpt>
      <trkpt lat="46.63811" lon="6.02881">
        <ele>817.74</ele>
        <time>2018-03-09T12:35:10Z</time>
      </trkpt>
      <trkpt lat="46.63811" lon="6.02881">
        <ele>817.26</ele>
        <time>2018-03-09T12:35:41Z</time>
      </trkpt>
      <trkpt lat="46.63811" lon="6.02881">
        <ele>817.26</ele>
        <time>2018-03-09T12:36:16Z</time>
      </trkpt>
      <trkpt lat="46.63811" lon="6.02882">
        <ele>817.26</ele>
        <time>2018-03-09T12:36:52Z</time>
      </trkpt>
      <trkpt lat="46.63811" lon="6.02881">
        <ele>817.74</ele>
        <time>2018-03-09T12:37:31Z</time>
      </trkpt>
      <trkpt lat="46.63811" lon="6.02881">
        <ele>816.78</ele>
        <time>2018-03-09T12:38:02Z</time>
      </trkpt>
      <trkpt lat="46.63811" lon="6.02881">
        <ele>817.26</ele>
        <time>2018-03-09T12:38:32Z</time>
      </trkpt>
      <trkpt lat="46.63811" lon="6.02881">
        <ele>816.78</ele>
        <time>2018-03-09T12:39:02Z</time>
      </trkpt>
      <trkpt lat="46.63811" lon="6.0288">
        <ele>816.78</ele>
        <time>2018-03-09T12:39:29Z</time>
      </trkpt>
      <trkpt lat="46.63811" lon="6.0288">
        <ele>816.3</ele>
        <time>2018-03-09T12:40:01Z</time>
      </trkpt>
      <trkpt lat="46.63811" lon="6.02881">
        <ele>816.3</ele>
        <time>2018-03-09T12:40:35Z</time>
      </trkpt>
      <trkpt lat="46.63811" lon="6.02881">
        <ele>816.78</ele>
        <time>2018-03-09T12:41:12Z</time>
      </trkpt>
      <trkpt lat="46.6381" lon="6.0288">
        <ele>816.3</ele>
        <time>2018-03-09T12:41:42Z</time>
      </trkpt>
      <trkpt lat="46.6381" lon="6.0288">
        <ele>816.3</ele>
        <time>2018-03-09T12:42:13Z</time>
      </trkpt>
      <trkpt lat="46.6381" lon="6.0288">
        <ele>816.3</ele>
        <time>2018-03-09T12:42:42Z</time>
      </trkpt>
      <trkpt lat="46.6381" lon="6.0288">
        <ele>816.3</ele>
        <time>2018-03-09T12:43:09Z</time>
      </trkpt>
      <trkpt lat="46.6381" lon="6.0288">
        <ele>816.3</ele>
        <time>2018-03-09T12:43:36Z</time>
      </trkpt>
      <trkpt lat="46.6381" lon="6.0288">
        <ele>816.78</ele>
        <time>2018-03-09T12:44:05Z</time>
      </trkpt>
      <trkpt lat="46.6381" lon="6.0288">
        <ele>816.3</ele>
        <time>2018-03-09T12:44:38Z</time>
      </trkpt>
      <trkpt lat="46.6381" lon="6.02881">
        <ele>816.3</ele>
        <time>2018-03-09T12:45:14Z</time>
      </trkpt>
      <trkpt lat="46.63809" lon="6.02881">
        <ele>816.3</ele>
        <time>2018-03-09T12:45:55Z</time>
      </trkpt>
      <trkpt lat="46.63809" lon="6.0288">
        <ele>817.26</ele>
        <time>2018-03-09T12:46:39Z</time>
      </trkpt>
      <trkpt lat="46.63809" lon="6.0288">
        <ele>817.74</ele>
        <time>2018-03-09T12:47:22Z</time>
      </trkpt>
      <trkpt lat="46.63809" lon="6.0288">
        <ele>816.78</ele>
        <time>2018-03-09T12:47:59Z</time>
      </trkpt>
      <trkpt lat="46.63809" lon="6.02881">
        <ele>816.78</ele>
        <time>2018-03-09T12:48:33Z</time>
      </trkpt>
      <trkpt lat="46.63809" lon="6.02881">
        <ele>816.78</ele>
        <time>2018-03-09T12:49:13Z</time>
      </trkpt>
      <trkpt lat="46.63809" lon="6.02881">
        <ele>816.78</ele>
        <time>2018-03-09T12:49:55Z</time>
      </trkpt>
      <trkpt lat="46.63809" lon="6.02881">
        <ele>816.3</ele>
        <time>2018-03-09T12:50:28Z</time>
      </trkpt>
      <trkpt lat="46.63809" lon="6.02881">
        <ele>816.78</ele>
        <time>2018-03-09T12:51:00Z</time>
      </trkpt>
      <trkpt lat="46.63809" lon="6.02881">
        <ele>816.3</ele>
        <time>2018-03-09T12:51:34Z</time>
      </trkpt>
      <trkpt lat="46.63809" lon="6.02882">
        <ele>816.3</ele>
        <time>2018-03-09T12:52:12Z</time>
      </trkpt>
      <trkpt lat="46.63809" lon="6.02882">
        <ele>816.3</ele>
        <time>2018-03-09T12:52:48Z</time>
      </trkpt>
      <trkpt lat="46.63809" lon="6.02883">
        <ele>815.82</ele>
        <time>2018-03-09T12:53:26Z</time>
      </trkpt>
      <trkpt lat="46.63808" lon="6.02883">
        <ele>816.3</ele>
        <time>2018-03-09T12:53:58Z</time>
      </trkpt>
      <trkpt lat="46.63808" lon="6.02883">
        <ele>815.82</ele>
        <time>2018-03-09T12:54:31Z</time>
      </trkpt>
      <trkpt lat="46.63808" lon="6.02882">
        <ele>815.82</ele>
        <time>2018-03-09T12:55:05Z</time>
      </trkpt>
      <trkpt lat="46.63807" lon="6.02882">
        <ele>816.78</ele>
        <time>2018-03-09T12:55:38Z</time>
      </trkpt>
      <trkpt lat="46.63807" lon="6.02882">
        <ele>816.78</ele>
        <time>2018-03-09T12:56:10Z</time>
      </trkpt>
      <trkpt lat="46.63807" lon="6.02882">
        <ele>816.78</ele>
        <time>2018-03-09T12:56:40Z</time>
      </trkpt>
      <trkpt lat="46.63807" lon="6.02882">
        <ele>816.78</ele>
        <time>2018-03-09T12:57:11Z</time>
      </trkpt>
      <trkpt lat="46.63807" lon="6.02882">
        <ele>817.26</ele>
        <time>2018-03-09T12:57:42Z</time>
      </trkpt>
      <trkpt lat="46.63807" lon="6.02881">
        <ele>817.26</ele>
        <time>2018-03-09T12:58:12Z</time>
      </trkpt>
      <trkpt lat="46.63806" lon="6.02881">
        <ele>817.26</ele>
        <time>2018-03-09T12:58:47Z</time>
      </trkpt>
      <trkpt lat="46.63806" lon="6.02881">
        <ele>816.78</ele>
        <time>2018-03-09T12:59:21Z</time>
      </trkpt>
      <trkpt lat="46.63806" lon="6.02882">
        <ele>816.78</ele>
        <time>2018-03-09T12:59:54Z</time>
      </trkpt>
      <trkpt lat="46.63806" lon="6.02882">
        <ele>817.26</ele>
        <time>2018-03-09T13:00:33Z</time>
      </trkpt>
      <trkpt lat="46.63806" lon="6.02882">
        <ele>817.74</ele>
        <time>2018-03-09T13:01:08Z</time>
      </trkpt>
      <trkpt lat="46.63806" lon="6.02882">
        <ele>817.74</ele>
        <time>2018-03-09T13:01:43Z</time>
      </trkpt>
      <trkpt lat="46.63806" lon="6.02882">
        <ele>818.22</ele>
        <time>2018-03-09T13:02:19Z</time>
      </trkpt>
      <trkpt lat="46.63806" lon="6.02882">
        <ele>818.7</ele>
        <time>2018-03-09T13:02:50Z</time>
      </trkpt>
      <trkpt lat="46.63805" lon="6.02883">
        <ele>818.22</ele>
        <time>2018-03-09T13:03:21Z</time>
      </trkpt>
      <trkpt lat="46.63805" lon="6.02884">
        <ele>817.26</ele>
        <time>2018-03-09T13:03:49Z</time>
      </trkpt>
      <trkpt lat="46.63804" lon="6.02884">
        <ele>817.74</ele>
        <time>2018-03-09T13:04:21Z</time>
      </trkpt>
      <trkpt lat="46.63804" lon="6.02884">
        <ele>817.74</ele>
        <time>2018-03-09T13:04:47Z</time>
      </trkpt>
      <trkpt lat="46.63804" lon="6.02884">
        <ele>818.7</ele>
        <time>2018-03-09T13:05:17Z</time>
      </trkpt>
      <trkpt lat="46.63804" lon="6.02882">
        <ele>819.18</ele>
        <time>2018-03-09T13:05:50Z</time>
      </trkpt>
      <trkpt lat="46.63805" lon="6.0288">
        <ele>819.18</ele>
        <time>2018-03-09T13:06:24Z</time>
      </trkpt>
      <trkpt lat="46.63806" lon="6.02879">
        <ele>818.7</ele>
        <time>2018-03-09T13:07:03Z</time>
      </trkpt>
      <trkpt lat="46.63807" lon="6.0288">
        <ele>818.7</ele>
        <time>2018-03-09T13:07:40Z</time>
      </trkpt>
      <trkpt lat="46.63808" lon="6.0288">
        <ele>819.18</ele>
        <time>2018-03-09T13:08:11Z</time>
      </trkpt>
      <trkpt lat="46.63808" lon="6.0288">
        <ele>818.7</ele>
        <time>2018-03-09T13:08:46Z</time>
      </trkpt>
      <trkpt lat="46.63808" lon="6.0288">
        <ele>819.66</ele>
        <time>2018-03-09T13:09:25Z</time>
      </trkpt>
      <trkpt lat="46.63808" lon="6.02879">
        <ele>819.18</ele>
        <time>2018-03-09T13:10:00Z</time>
      </trkpt>
      <trkpt lat="46.63808" lon="6.02878">
        <ele>819.18</ele>
        <time>2018-03-09T13:10:35Z</time>
      </trkpt>
      <trkpt lat="46.63808" lon="6.02879">
        <ele>819.18</ele>
        <time>2018-03-09T13:11:12Z</time>
      </trkpt>
      <trkpt lat="46.63808" lon="6.0288">
        <ele>818.7</ele>
        <time>2018-03-09T13:11:50Z</time>
      </trkpt>
      <trkpt lat="46.63808" lon="6.0288">
        <ele>819.66</ele>
        <time>2018-03-09T13:12:25Z</time>
      </trkpt>
      <trkpt lat="46.63808" lon="6.02879">
        <ele>818.7</ele>
        <time>2018-03-09T13:12:56Z</time>
      </trkpt>
      <trkpt lat="46.63808" lon="6.0288">
        <ele>818.7</ele>
        <time>2018-03-09T13:13:30Z</time>
      </trkpt>
      <trkpt lat="46.63808" lon="6.02879">
        <ele>819.18</ele>
        <time>2018-03-09T13:14:07Z</time>
      </trkpt>
      <trkpt lat="46.63808" lon="6.02879">
        <ele>819.18</ele>
        <time>2018-03-09T13:14:39Z</time>
      </trkpt>
      <trkpt lat="46.63808" lon="6.02879">
        <ele>818.7</ele>
        <time>2018-03-09T13:15:14Z</time>
      </trkpt>
      <trkpt lat="46.63808" lon="6.02879">
        <ele>819.18</ele>
        <time>2018-03-09T13:15:48Z</time>
      </trkpt>
      <trkpt lat="46.63808" lon="6.02878">
        <ele>818.7</ele>
        <time>2018-03-09T13:16:21Z</time>
      </trkpt>
      <trkpt lat="46.63808" lon="6.02879">
        <ele>818.7</ele>
        <time>2018-03-09T13:16:57Z</time>
      </trkpt>
      <trkpt lat="46.63808" lon="6.02878">
        <ele>818.7</ele>
        <time>2018-03-09T13:17:31Z</time>
      </trkpt>
      <trkpt lat="46.63808" lon="6.02878">
        <ele>818.7</ele>
        <time>2018-03-09T13:18:02Z</time>
      </trkpt>
      <trkpt lat="46.63808" lon="6.02879">
        <ele>818.22</ele>
        <time>2018-03-09T13:18:38Z</time>
      </trkpt>
      <trkpt lat="46.63808" lon="6.02879">
        <ele>819.18</ele>
        <time>2018-03-09T13:19:13Z</time>
      </trkpt>
      <trkpt lat="46.63808" lon="6.02879">
        <ele>819.66</ele>
        <time>2018-03-09T13:19:46Z</time>
      </trkpt>
      <trkpt lat="46.63808" lon="6.0288">
        <ele>819.18</ele>
        <time>2018-03-09T13:20:21Z</time>
      </trkpt>
      <trkpt lat="46.63808" lon="6.0288">
        <ele>819.66</ele>
        <time>2018-03-09T13:20:50Z</time>
      </trkpt>
      <trkpt lat="46.63808" lon="6.0288">
        <ele>819.66</ele>
        <time>2018-03-09T13:21:24Z</time>
      </trkpt>
      <trkpt lat="46.63809" lon="6.02881">
        <ele>820.14</ele>
        <time>2018-03-09T13:21:58Z</time>
      </trkpt>
      <trkpt lat="46.63809" lon="6.02881">
        <ele>819.66</ele>
        <time>2018-03-09T13:22:32Z</time>
      </trkpt>
      <trkpt lat="46.63809" lon="6.02881">
        <ele>819.66</ele>
        <time>2018-03-09T13:23:02Z</time>
      </trkpt>
      <trkpt lat="46.63809" lon="6.02881">
        <ele>820.14</ele>
        <time>2018-03-09T13:23:35Z</time>
      </trkpt>
      <trkpt lat="46.63809" lon="6.02881">
        <ele>820.14</ele>
        <time>2018-03-09T13:24:05Z</time>
      </trkpt>
      <trkpt lat="46.63809" lon="6.02881">
        <ele>820.14</ele>
        <time>2018-03-09T13:24:33Z</time>
      </trkpt>
      <trkpt lat="46.63809" lon="6.02881">
        <ele>820.14</ele>
        <time>2018-03-09T13:25:05Z</time>
      </trkpt>
      <trkpt lat="46.63809" lon="6.02881">
        <ele>820.14</ele>
        <time>2018-03-09T13:25:34Z</time>
      </trkpt>
      <trkpt lat="46.6381" lon="6.0288">
        <ele>820.62</ele>
        <time>2018-03-09T13:26:04Z</time>
      </trkpt>
      <trkpt lat="46.6381" lon="6.0288">
        <ele>820.14</ele>
        <time>2018-03-09T13:26:34Z</time>
      </trkpt>
      <trkpt lat="46.6381" lon="6.0288">
        <ele>820.14</ele>
        <time>2018-03-09T13:27:08Z</time>
      </trkpt>
      <trkpt lat="46.6381" lon="6.0288">
        <ele>820.14</ele>
        <time>2018-03-09T13:27:40Z</time>
      </trkpt>
      <trkpt lat="46.6381" lon="6.0288">
        <ele>820.14</ele>
        <time>2018-03-09T13:28:12Z</time>
      </trkpt>
      <trkpt lat="46.6381" lon="6.0288">
        <ele>820.14</ele>
        <time>2018-03-09T13:28:48Z</time>
      </trkpt>
      <trkpt lat="46.63809" lon="6.02881">
        <ele>820.14</ele>
        <time>2018-03-09T13:29:18Z</time>
      </trkpt>
      <trkpt lat="46.63809" lon="6.02881">
        <ele>820.14</ele>
        <time>2018-03-09T13:29:48Z</time>
      </trkpt>
      <trkpt lat="46.63809" lon="6.02881">
        <ele>819.66</ele>
        <time>2018-03-09T13:30:21Z</time>
      </trkpt>
      <trkpt lat="46.63808" lon="6.02881">
        <ele>820.62</ele>
        <time>2018-03-09T13:30:54Z</time>
      </trkpt>
      <trkpt lat="46.63809" lon="6.02881">
        <ele>820.14</ele>
        <time>2018-03-09T13:31:27Z</time>
      </trkpt>
      <trkpt lat="46.63809" lon="6.02881">
        <ele>820.62</ele>
        <time>2018-03-09T13:31:56Z</time>
      </trkpt>
      <trkpt lat="46.63809" lon="6.02881">
        <ele>820.14</ele>
        <time>2018-03-09T13:32:28Z</time>
      </trkpt>
      <trkpt lat="46.63809" lon="6.02881">
        <ele>820.62</ele>
        <time>2018-03-09T13:32:57Z</time>
      </trkpt>
      <trkpt lat="46.63808" lon="6.02881">
        <ele>820.14</ele>
        <time>2018-03-09T13:33:26Z</time>
      </trkpt>
      <trkpt lat="46.63808" lon="6.0288">
        <ele>820.14</ele>
        <time>2018-03-09T13:33:50Z</time>
      </trkpt>
      <trkpt lat="46.63808" lon="6.02881">
        <ele>819.66</ele>
        <time>2018-03-09T13:34:14Z</time>
      </trkpt>
      <trkpt lat="46.63808" lon="6.02881">
        <ele>819.66</ele>
        <time>2018-03-09T13:34:42Z</time>
      </trkpt>
      <trkpt lat="46.63808" lon="6.02882">
        <ele>819.66</ele>
        <time>2018-03-09T13:35:07Z</time>
      </trkpt>
      <trkpt lat="46.63808" lon="6.02881">
        <ele>819.66</ele>
        <time>2018-03-09T13:35:32Z</time>
      </trkpt>
      <trkpt lat="46.63808" lon="6.02882">
        <ele>819.66</ele>
        <time>2018-03-09T13:35:57Z</time>
      </trkpt>
      <trkpt lat="46.63808" lon="6.02882">
        <ele>819.18</ele>
        <time>2018-03-09T13:36:25Z</time>
      </trkpt>
      <trkpt lat="46.63808" lon="6.02882">
        <ele>819.66</ele>
        <time>2018-03-09T13:36:52Z</time>
      </trkpt>
      <trkpt lat="46.63808" lon="6.02882">
        <ele>819.18</ele>
        <time>2018-03-09T13:37:18Z</time>
      </trkpt>
      <trkpt lat="46.63808" lon="6.02881">
        <ele>818.7</ele>
        <time>2018-03-09T13:37:46Z</time>
      </trkpt>
      <trkpt lat="46.63808" lon="6.02881">
        <ele>818.22</ele>
        <time>2018-03-09T13:38:17Z</time>
      </trkpt>
      <trkpt lat="46.63808" lon="6.02881">
        <ele>818.7</ele>
        <time>2018-03-09T13:38:47Z</time>
      </trkpt>
      <trkpt lat="46.63808" lon="6.02882">
        <ele>818.7</ele>
        <time>2018-03-09T13:39:16Z</time>
      </trkpt>
      <trkpt lat="46.63808" lon="6.02882">
        <ele>818.22</ele>
        <time>2018-03-09T13:39:42Z</time>
      </trkpt>
      <trkpt lat="46.63807" lon="6.02882">
        <ele>818.22</ele>
        <time>2018-03-09T13:40:10Z</time>
      </trkpt>
      <trkpt lat="46.63807" lon="6.02882">
        <ele>818.22</ele>
        <time>2018-03-09T13:40:40Z</time>
      </trkpt>
      <trkpt lat="46.63807" lon="6.02881">
        <ele>817.74</ele>
        <time>2018-03-09T13:41:10Z</time>
      </trkpt>
      <trkpt lat="46.63807" lon="6.02881">
        <ele>818.22</ele>
        <time>2018-03-09T13:41:42Z</time>
      </trkpt>
      <trkpt lat="46.63807" lon="6.02882">
        <ele>817.74</ele>
        <time>2018-03-09T13:42:16Z</time>
      </trkpt>
      <trkpt lat="46.63806" lon="6.02882">
        <ele>817.26</ele>
        <time>2018-03-09T13:42:48Z</time>
      </trkpt>
      <trkpt lat="46.63806" lon="6.02882">
        <ele>817.74</ele>
        <time>2018-03-09T13:43:18Z</time>
      </trkpt>
      <trkpt lat="46.63802" lon="6.02881">
        <ele>817.74</ele>
        <time>2018-03-09T13:43:43Z</time>
      </trkpt>
      <trkpt lat="46.63802" lon="6.02882">
        <ele>817.26</ele>
        <time>2018-03-09T13:44:12Z</time>
      </trkpt>
      <trkpt lat="46.63801" lon="6.02882">
        <ele>817.26</ele>
        <time>2018-03-09T13:44:43Z</time>
      </trkpt>
      <trkpt lat="46.63801" lon="6.02883">
        <ele>817.26</ele>
        <time>2018-03-09T13:45:13Z</time>
      </trkpt>
      <trkpt lat="46.638" lon="6.02883">
        <ele>817.26</ele>
        <time>2018-03-09T13:45:41Z</time>
      </trkpt>
      <trkpt lat="46.63801" lon="6.02882">
        <ele>817.26</ele>
        <time>2018-03-09T13:46:10Z</time>
      </trkpt>
      <trkpt lat="46.63803" lon="6.02882">
        <ele>816.78</ele>
        <time>2018-03-09T13:46:34Z</time>
      </trkpt>
      <trkpt lat="46.63804" lon="6.02881">
        <ele>817.26</ele>
        <time>2018-03-09T13:47:00Z</time>
      </trkpt>
      <trkpt lat="46.63804" lon="6.0288">
        <ele>816.78</ele>
        <time>2018-03-09T13:47:31Z</time>
      </trkpt>
      <trkpt lat="46.63805" lon="6.0288">
        <ele>816.3</ele>
        <time>2018-03-09T13:48:01Z</time>
      </trkpt>
      <trkpt lat="46.63805" lon="6.02879">
        <ele>816.3</ele>
        <time>2018-03-09T13:48:32Z</time>
      </trkpt>
      <trkpt lat="46.63806" lon="6.02879">
        <ele>816.3</ele>
        <time>2018-03-09T13:49:03Z</time>
      </trkpt>
      <trkpt lat="46.63806" lon="6.0288">
        <ele>816.3</ele>
        <time>2018-03-09T13:49:30Z</time>
      </trkpt>
      <trkpt lat="46.63806" lon="6.0288">
        <ele>815.82</ele>
        <time>2018-03-09T13:49:58Z</time>
      </trkpt>
      <trkpt lat="46.63807" lon="6.0288">
        <ele>815.82</ele>
        <time>2018-03-09T13:50:30Z</time>
      </trkpt>
      <trkpt lat="46.63807" lon="6.0288">
        <ele>815.82</ele>
        <time>2018-03-09T13:51:00Z</time>
      </trkpt>
      <trkpt lat="46.63807" lon="6.0288">
        <ele>815.82</ele>
        <time>2018-03-09T13:51:32Z</time>
      </trkpt>
    </trkseg>
  </trk>
</gpx>